AFL1730 UUEE-UHPP
Flight info
| Callsign | AFL1730 |
|---|---|
| Flight time | 7h 40m |
| Altitude | 33000 |
| Route | RILPO3J RILPO T753 TUNOB T791 BI M130 OSVOD B927 LUMAG A812 BAKEN BAKEN5N |
| Aircraft | B77W/H-SDE1E2E3FGHIJ2J3J4J5M1RWXY/LB1D1 |
Departure
| Time | 2026-05-07 22:28 |
|---|---|
| Airport | Sheremetyevo International Airport (UUEE) |
Arrival
| Time | 2026-05-08 06:08 |
|---|---|
| Airport | Yelizovo Airport (UHPP) |
| Time | Latitude | Longitude | Altitude | Speed | Heading |
|---|---|---|---|---|---|
| 2026-05-07 22:10 | 55.98018 | 37.41839 | 644 ft | 0 kts | 255° |
| 2026-05-07 22:18 | 55.98018 | 37.41840 | 644 ft | 1 kts | 255° |
| 2026-05-07 22:18 | 55.98023 | 37.41908 | 645 ft | 4 kts | 287° |
| 2026-05-07 22:18 | 55.98021 | 37.41932 | 651 ft | 4 kts | 250° |
| 2026-05-07 22:19 | 55.98031 | 37.41969 | 647 ft | 4 kts | 222° |
| 2026-05-07 22:19 | 55.98044 | 37.41984 | 651 ft | 4 kts | 176° |
| 2026-05-07 22:19 | 55.98064 | 37.41973 | 647 ft | 4 kts | 149° |
| 2026-05-07 22:19 | 55.98087 | 37.41950 | 645 ft | 4 kts | 158° |
| 2026-05-07 22:20 | 55.98096 | 37.41943 | 647 ft | 0 kts | 165° |
| 2026-05-07 22:22 | 55.98069 | 37.41956 | 645 ft | 7 kts | 165° |
| 2026-05-07 22:23 | 55.98000 | 37.41989 | 648 ft | 13 kts | 165° |
| 2026-05-07 22:23 | 55.97942 | 37.42016 | 648 ft | 11 kts | 165° |
| 2026-05-07 22:23 | 55.97847 | 37.42061 | 647 ft | 17 kts | 165° |
| 2026-05-07 22:23 | 55.97762 | 37.42102 | 651 ft | 11 kts | 165° |
| 2026-05-07 22:24 | 55.97696 | 37.42162 | 648 ft | 12 kts | 119° |
| 2026-05-07 22:24 | 55.97707 | 37.42332 | 649 ft | 16 kts | 75° |
| 2026-05-07 22:24 | 55.97729 | 37.42486 | 645 ft | 12 kts | 76° |
| 2026-05-07 22:24 | 55.97753 | 37.42646 | 648 ft | 9 kts | 75° |
| 2026-05-07 22:25 | 55.97758 | 37.42749 | 648 ft | 8 kts | 110° |
| 2026-05-07 22:25 | 55.97740 | 37.42780 | 648 ft | 2 kts | 145° |
| 2026-05-07 22:25 | 55.97730 | 37.42788 | 645 ft | 3 kts | 154° |
| 2026-05-07 22:25 | 55.97694 | 37.42810 | 652 ft | 9 kts | 165° |
| 2026-05-07 22:26 | 55.97630 | 37.42836 | 648 ft | 10 kts | 181° |
| 2026-05-07 22:26 | 55.97593 | 37.42771 | 648 ft | 0 kts | 254° |
| 2026-05-07 22:27 | 55.97557 | 37.42537 | 647 ft | 54 kts | 255° |
| 2026-05-07 22:27 | 55.97398 | 37.41452 | 649 ft | 125 kts | 255° |
| 2026-05-07 22:27 | 55.97119 | 37.39577 | 645 ft | 185 kts | 257° |
| 2026-05-07 22:27 | 55.96800 | 37.37209 | 1076 ft | 197 kts | 256° |
| 2026-05-07 22:28 | 55.96440 | 37.34809 | 1745 ft | 196 kts | 255° |
| 2026-05-07 22:28 | 55.96083 | 37.32548 | 2549 ft | 191 kts | 255° |
| 2026-05-07 22:28 | 55.95687 | 37.30185 | 2884 ft | 207 kts | 254° |
| 2026-05-07 22:28 | 55.95269 | 37.27636 | 3184 ft | 225 kts | 254° |
| 2026-05-07 22:29 | 55.95124 | 37.24808 | 3489 ft | 237 kts | 283° |
| 2026-05-07 22:29 | 55.95949 | 37.22210 | 4025 ft | 250 kts | 311° |
| 2026-05-07 22:29 | 55.97439 | 37.20532 | 4608 ft | 261 kts | 338° |
| 2026-05-07 22:29 | 55.99280 | 37.20161 | 5136 ft | 277 kts | 5° |
| 2026-05-07 22:30 | 56.01116 | 37.21377 | 5646 ft | 290 kts | 32° |
| 2026-05-07 22:30 | 56.02714 | 37.23675 | 6209 ft | 299 kts | 42° |
| 2026-05-07 22:30 | 56.04202 | 37.26260 | 6832 ft | 304 kts | 44° |
| 2026-05-07 22:30 | 56.05702 | 37.28950 | 7472 ft | 306 kts | 44° |
| 2026-05-07 22:31 | 56.07221 | 37.31657 | 8100 ft | 310 kts | 43° |
| 2026-05-07 22:31 | 56.08772 | 37.34384 | 8717 ft | 314 kts | 43° |
| 2026-05-07 22:31 | 56.10348 | 37.37121 | 9334 ft | 318 kts | 42° |
| 2026-05-07 22:31 | 56.11957 | 37.39892 | 9916 ft | 323 kts | 42° |
| 2026-05-07 22:32 | 56.13594 | 37.42693 | 10444 ft | 331 kts | 42° |
| 2026-05-07 22:32 | 56.15288 | 37.45579 | 10876 ft | 341 kts | 42° |
| 2026-05-07 22:32 | 56.17029 | 37.48546 | 11493 ft | 347 kts | 41° |
| 2026-05-07 22:32 | 56.18790 | 37.51548 | 12255 ft | 351 kts | 41° |
| 2026-05-07 22:33 | 56.20566 | 37.54579 | 13046 ft | 354 kts | 41° |
| 2026-05-07 22:33 | 56.22364 | 37.57653 | 13812 ft | 358 kts | 41° |
| 2026-05-07 22:33 | 56.24178 | 37.60757 | 14537 ft | 361 kts | 41° |
| 2026-05-07 22:33 | 56.26002 | 37.63880 | 15260 ft | 364 kts | 41° |
| 2026-05-07 22:34 | 56.27843 | 37.67038 | 15982 ft | 367 kts | 41° |
| 2026-05-07 22:34 | 56.29698 | 37.70222 | 16668 ft | 370 kts | 41° |
| 2026-05-07 22:34 | 56.31511 | 37.73585 | 17204 ft | 379 kts | 47° |
| 2026-05-07 22:34 | 56.33183 | 37.77258 | 17844 ft | 379 kts | 49° |
| 2026-05-07 22:35 | 56.34820 | 37.80934 | 17885 ft | 384 kts | 49° |
| 2026-05-07 22:35 | 56.36511 | 37.84654 | 17901 ft | 383 kts | 48° |
| 2026-05-07 22:35 | 56.38288 | 37.88166 | 17880 ft | 374 kts | 34° |
| 2026-05-07 22:35 | 56.40523 | 37.90422 | 17935 ft | 370 kts | 14° |
| 2026-05-07 22:36 | 56.43068 | 37.91342 | 18083 ft | 380 kts | 0° |
| 2026-05-07 22:36 | 56.45768 | 37.91695 | 18247 ft | 399 kts | 359° |
| 2026-05-07 22:36 | 56.48601 | 37.91998 | 18451 ft | 415 kts | 359° |
| 2026-05-07 22:36 | 56.51528 | 37.92327 | 18871 ft | 426 kts | 359° |
| 2026-05-07 22:37 | 56.54507 | 37.92695 | 19413 ft | 432 kts | 359° |
| 2026-05-07 22:37 | 56.57520 | 37.93096 | 20070 ft | 436 kts | 360° |
| 2026-05-07 22:37 | 56.60545 | 37.93510 | 20723 ft | 439 kts | 360° |
| 2026-05-07 22:37 | 56.63608 | 37.93932 | 21347 ft | 443 kts | 359° |
| 2026-05-07 22:38 | 56.66677 | 37.94618 | 21820 ft | 452 kts | 9° |
| 2026-05-07 22:38 | 56.69676 | 37.96628 | 22286 ft | 467 kts | 24° |
| 2026-05-07 22:38 | 56.72385 | 37.99990 | 22879 ft | 476 kts | 39° |
| 2026-05-07 22:38 | 56.74754 | 38.04239 | 23411 ft | 481 kts | 43° |
| 2026-05-07 22:39 | 56.77092 | 38.08635 | 23834 ft | 486 kts | 43° |
| 2026-05-07 22:39 | 56.79463 | 38.13065 | 24328 ft | 489 kts | 43° |
| 2026-05-07 22:39 | 56.81864 | 38.17467 | 24854 ft | 490 kts | 42° |
| 2026-05-07 22:39 | 56.84293 | 38.21857 | 25354 ft | 492 kts | 42° |
| 2026-05-07 22:40 | 56.86740 | 38.26259 | 25813 ft | 495 kts | 41° |
| 2026-05-07 22:40 | 56.89289 | 38.30513 | 26251 ft | 497 kts | 38° |
| 2026-05-07 22:40 | 56.91919 | 38.34653 | 26682 ft | 500 kts | 37° |
| 2026-05-07 22:40 | 56.94586 | 38.38777 | 27118 ft | 503 kts | 37° |
| 2026-05-07 22:41 | 56.97274 | 38.42922 | 27556 ft | 505 kts | 37° |
| 2026-05-07 22:41 | 56.99935 | 38.47047 | 27959 ft | 508 kts | 37° |
| 2026-05-07 22:41 | 57.02636 | 38.51262 | 28350 ft | 511 kts | 38° |
| 2026-05-07 22:41 | 57.05379 | 38.55571 | 28734 ft | 514 kts | 38° |
| 2026-05-07 22:42 | 57.08061 | 38.59806 | 29079 ft | 516 kts | 38° |
| 2026-05-07 22:42 | 57.10789 | 38.64126 | 29424 ft | 519 kts | 38° |
| 2026-05-07 22:42 | 57.13532 | 38.68480 | 29750 ft | 521 kts | 38° |
| 2026-05-07 22:42 | 57.16277 | 38.72846 | 30167 ft | 521 kts | 38° |
| 2026-05-07 22:43 | 57.19011 | 38.77206 | 30573 ft | 519 kts | 38° |
| 2026-05-07 22:43 | 57.21736 | 38.81556 | 30998 ft | 517 kts | 38° |
| 2026-05-07 22:43 | 57.24451 | 38.85897 | 31393 ft | 516 kts | 38° |
| 2026-05-07 22:43 | 57.27160 | 38.90238 | 31753 ft | 516 kts | 38° |
| 2026-05-07 22:44 | 57.29874 | 38.94592 | 32104 ft | 515 kts | 38° |
| 2026-05-07 22:44 | 57.32573 | 38.98934 | 32461 ft | 514 kts | 38° |
| 2026-05-07 22:44 | 57.35273 | 39.03286 | 32814 ft | 514 kts | 38° |
| 2026-05-07 22:44 | 57.37973 | 39.07646 | 32918 ft | 518 kts | 38° |
| 2026-05-07 22:45 | 57.40692 | 39.12045 | 32945 ft | 518 kts | 38° |
| 2026-05-07 22:45 | 57.46099 | 39.20824 | 32938 ft | 513 kts | 38° |
| 2026-05-07 22:46 | 57.51457 | 39.29551 | 32956 ft | 512 kts | 38° |
| 2026-05-07 22:46 | 57.56790 | 39.38256 | 32955 ft | 513 kts | 38° |
| 2026-05-07 22:47 | 57.62159 | 39.47056 | 32960 ft | 514 kts | 38° |
| 2026-05-07 22:47 | 57.67531 | 39.55899 | 32953 ft | 515 kts | 38° |
| 2026-05-07 22:48 | 57.72910 | 39.64791 | 32950 ft | 516 kts | 38° |
| 2026-05-07 22:48 | 57.78289 | 39.73723 | 32945 ft | 517 kts | 38° |
| 2026-05-07 22:49 | 57.83666 | 39.82684 | 32954 ft | 517 kts | 38° |
| 2026-05-07 22:49 | 57.89039 | 39.91682 | 32958 ft | 517 kts | 38° |
| 2026-05-07 22:50 | 57.94388 | 40.00736 | 32957 ft | 517 kts | 38° |
| 2026-05-07 22:50 | 57.99727 | 40.09821 | 32961 ft | 517 kts | 38° |
| 2026-05-07 22:51 | 58.05060 | 40.18927 | 32963 ft | 517 kts | 38° |
| 2026-05-07 22:51 | 58.10355 | 40.28000 | 32962 ft | 516 kts | 38° |
| 2026-05-07 22:52 | 58.15667 | 40.37140 | 32965 ft | 516 kts | 38° |
| 2026-05-07 22:52 | 58.20989 | 40.46282 | 32962 ft | 516 kts | 38° |
| 2026-05-07 22:53 | 58.26326 | 40.55405 | 32966 ft | 516 kts | 38° |
| 2026-05-07 22:53 | 58.31656 | 40.64556 | 32968 ft | 516 kts | 38° |
| 2026-05-07 22:54 | 58.36974 | 40.73738 | 32961 ft | 517 kts | 38° |
| 2026-05-07 22:54 | 58.42293 | 40.82969 | 32969 ft | 517 kts | 38° |
| 2026-05-07 22:55 | 58.47621 | 40.92253 | 32969 ft | 518 kts | 38° |
| 2026-05-07 22:55 | 58.52943 | 41.01567 | 32969 ft | 519 kts | 38° |
| 2026-05-07 22:56 | 58.58225 | 41.10852 | 32972 ft | 519 kts | 38° |
| 2026-05-07 22:56 | 58.63550 | 41.20251 | 32970 ft | 520 kts | 38° |
| 2026-05-07 22:57 | 58.68865 | 41.29673 | 32979 ft | 521 kts | 38° |
| 2026-05-07 22:57 | 58.74185 | 41.39144 | 32965 ft | 521 kts | 38° |
| 2026-05-07 22:58 | 58.79671 | 41.48173 | 32976 ft | 516 kts | 31° |
| 2026-05-07 22:58 | 58.85459 | 41.56328 | 32973 ft | 515 kts | 30° |
| 2026-05-07 22:59 | 58.91270 | 41.64470 | 32971 ft | 516 kts | 31° |
| 2026-05-07 22:59 | 58.97049 | 41.72704 | 32980 ft | 516 kts | 31° |
| 2026-05-07 23:00 | 59.02825 | 41.81025 | 32975 ft | 518 kts | 31° |
| 2026-05-07 23:00 | 59.08572 | 41.89342 | 32964 ft | 519 kts | 30° |
| 2026-05-07 23:01 | 59.14372 | 41.97763 | 32974 ft | 521 kts | 30° |
| 2026-05-07 23:01 | 59.20186 | 42.06240 | 32976 ft | 523 kts | 30° |
| 2026-05-07 23:02 | 59.26015 | 42.14779 | 32974 ft | 524 kts | 30° |
| 2026-05-07 23:02 | 59.31854 | 42.23369 | 32973 ft | 525 kts | 30° |
| 2026-05-07 23:03 | 59.37646 | 42.32086 | 32973 ft | 528 kts | 34° |
| 2026-05-07 23:03 | 59.42029 | 42.40544 | 32970 ft | 535 kts | 42° |
| 2026-05-07 23:04 | 59.46963 | 42.51477 | 32975 ft | 535 kts | 43° |
| 2026-05-07 23:04 | 59.51893 | 42.62441 | 32990 ft | 534 kts | 43° |
| 2026-05-07 23:05 | 59.56840 | 42.73318 | 32985 ft | 533 kts | 42° |
| 2026-05-07 23:05 | 59.61792 | 42.84203 | 32969 ft | 533 kts | 43° |
| 2026-05-07 23:06 | 59.66735 | 42.95131 | 32995 ft | 532 kts | 43° |
| 2026-05-07 23:06 | 59.71655 | 43.06074 | 32986 ft | 532 kts | 43° |
| 2026-05-07 23:07 | 59.76574 | 43.17059 | 32991 ft | 533 kts | 43° |
| 2026-05-07 23:07 | 59.81497 | 43.28091 | 32995 ft | 533 kts | 43° |
| 2026-05-07 23:08 | 59.86409 | 43.39149 | 32996 ft | 534 kts | 43° |
| 2026-05-07 23:08 | 59.91288 | 43.50186 | 33005 ft | 534 kts | 43° |
| 2026-05-07 23:09 | 59.96201 | 43.61350 | 33002 ft | 535 kts | 43° |
| 2026-05-07 23:09 | 60.01108 | 43.72530 | 33001 ft | 535 kts | 43° |
| 2026-05-07 23:10 | 60.06013 | 43.83748 | 33002 ft | 536 kts | 43° |
| 2026-05-07 23:10 | 60.10910 | 43.95007 | 33009 ft | 536 kts | 43° |
| 2026-05-07 23:11 | 60.15800 | 44.06306 | 33014 ft | 537 kts | 43° |
| 2026-05-07 23:11 | 60.20682 | 44.17645 | 33014 ft | 537 kts | 44° |
| 2026-05-07 23:12 | 60.25563 | 44.29040 | 33001 ft | 537 kts | 44° |
| 2026-05-07 23:12 | 60.30395 | 44.40376 | 33023 ft | 536 kts | 44° |
| 2026-05-07 23:13 | 60.35250 | 44.51824 | 33016 ft | 536 kts | 44° |
| 2026-05-07 23:13 | 60.40094 | 44.63299 | 33023 ft | 536 kts | 44° |
| 2026-05-07 23:14 | 60.44927 | 44.74809 | 33024 ft | 536 kts | 44° |
| 2026-05-07 23:14 | 60.49752 | 44.86359 | 33030 ft | 536 kts | 44° |
| 2026-05-07 23:15 | 60.54563 | 44.97932 | 33035 ft | 537 kts | 44° |
| 2026-05-07 23:15 | 60.59369 | 45.09549 | 33037 ft | 537 kts | 44° |
| 2026-05-07 23:16 | 60.64163 | 45.21201 | 33042 ft | 537 kts | 45° |
| 2026-05-07 23:16 | 60.68931 | 45.32917 | 33042 ft | 537 kts | 45° |
| 2026-05-07 23:17 | 60.73695 | 45.44675 | 33050 ft | 537 kts | 45° |
| 2026-05-07 23:17 | 60.78469 | 45.56403 | 33053 ft | 536 kts | 44° |
| 2026-05-07 23:18 | 60.83253 | 45.68143 | 33054 ft | 536 kts | 44° |
| 2026-05-07 23:18 | 60.88020 | 45.79916 | 33057 ft | 536 kts | 45° |
| 2026-05-07 23:19 | 60.92741 | 45.91656 | 33058 ft | 536 kts | 45° |
| 2026-05-07 23:19 | 60.97485 | 46.03514 | 33059 ft | 536 kts | 45° |
| 2026-05-07 23:20 | 61.02214 | 46.15390 | 33064 ft | 536 kts | 45° |
| 2026-05-07 23:20 | 61.06910 | 46.27312 | 33068 ft | 536 kts | 46° |
| 2026-05-07 23:21 | 61.11565 | 46.39368 | 33063 ft | 536 kts | 46° |
| 2026-05-07 23:21 | 61.16207 | 46.51451 | 33068 ft | 536 kts | 46° |
| 2026-05-07 23:22 | 61.20847 | 46.63555 | 33070 ft | 536 kts | 46° |
| 2026-05-07 23:22 | 61.25474 | 46.75691 | 33077 ft | 536 kts | 46° |
| 2026-05-07 23:23 | 61.30083 | 46.87884 | 33075 ft | 536 kts | 46° |
| 2026-05-07 23:23 | 61.34682 | 47.00122 | 33082 ft | 536 kts | 46° |
| 2026-05-07 23:24 | 61.39271 | 47.12387 | 33078 ft | 536 kts | 46° |
| 2026-05-07 23:24 | 61.43822 | 47.24608 | 33083 ft | 536 kts | 46° |
| 2026-05-07 23:25 | 61.48426 | 47.37011 | 33091 ft | 536 kts | 46° |
| 2026-05-07 23:25 | 61.52970 | 47.49304 | 33341 ft | 539 kts | 47° |
| 2026-05-07 23:25 | 61.55252 | 47.55530 | 33760 ft | 537 kts | 47° |
| 2026-05-07 23:26 | 61.57513 | 47.61740 | 34189 ft | 534 kts | 47° |
| 2026-05-07 23:26 | 61.59755 | 47.67927 | 34518 ft | 532 kts | 47° |
| 2026-05-07 23:26 | 61.61992 | 47.74117 | 34806 ft | 532 kts | 47° |
| 2026-05-07 23:26 | 61.64233 | 47.80325 | 35012 ft | 532 kts | 47° |
| 2026-05-07 23:27 | 61.68716 | 47.92787 | 35099 ft | 534 kts | 47° |
| 2026-05-07 23:27 | 61.73182 | 48.05273 | 35101 ft | 531 kts | 47° |
| 2026-05-07 23:28 | 61.77615 | 48.17732 | 35106 ft | 530 kts | 47° |
| 2026-05-07 23:28 | 61.82026 | 48.30192 | 35109 ft | 529 kts | 48° |
| 2026-05-07 23:29 | 61.86424 | 48.42682 | 35115 ft | 530 kts | 48° |
| 2026-05-07 23:29 | 61.90824 | 48.55249 | 35128 ft | 531 kts | 48° |
| 2026-05-07 23:30 | 61.95191 | 48.67791 | 35123 ft | 532 kts | 48° |
| 2026-05-07 23:30 | 61.99583 | 48.80477 | 35121 ft | 533 kts | 48° |
| 2026-05-07 23:31 | 62.03976 | 48.93236 | 35130 ft | 534 kts | 48° |
| 2026-05-07 23:31 | 62.08360 | 49.06036 | 35132 ft | 535 kts | 48° |
| 2026-05-07 23:32 | 62.12741 | 49.18885 | 35128 ft | 535 kts | 48° |
| 2026-05-07 23:32 | 62.17122 | 49.31743 | 35134 ft | 535 kts | 49° |
| 2026-05-07 23:33 | 62.21492 | 49.44623 | 35136 ft | 535 kts | 49° |
| 2026-05-07 23:33 | 62.25850 | 49.57549 | 35139 ft | 534 kts | 49° |
| 2026-05-07 23:34 | 62.30191 | 49.70506 | 35140 ft | 534 kts | 49° |
| 2026-05-07 23:34 | 62.34521 | 49.83505 | 35145 ft | 534 kts | 49° |
| 2026-05-07 23:35 | 62.38811 | 49.96454 | 35135 ft | 534 kts | 49° |
| 2026-05-07 23:35 | 62.43113 | 50.09515 | 35150 ft | 534 kts | 49° |
| 2026-05-07 23:36 | 62.47406 | 50.22625 | 35149 ft | 535 kts | 49° |
| 2026-05-07 23:36 | 62.51693 | 50.35788 | 35155 ft | 535 kts | 49° |
| 2026-05-07 23:37 | 62.55971 | 50.48985 | 35154 ft | 535 kts | 49° |
| 2026-05-07 23:37 | 62.60272 | 50.62169 | 35162 ft | 535 kts | 49° |
| 2026-05-07 23:38 | 62.64572 | 50.75372 | 35167 ft | 535 kts | 49° |
| 2026-05-07 23:38 | 62.68835 | 50.88567 | 35164 ft | 536 kts | 50° |
| 2026-05-07 23:39 | 62.73107 | 51.01873 | 35163 ft | 536 kts | 50° |
| 2026-05-07 23:39 | 62.77358 | 51.15216 | 35163 ft | 536 kts | 50° |
| 2026-05-07 23:40 | 62.81588 | 51.28621 | 35166 ft | 536 kts | 50° |
| 2026-05-07 23:40 | 62.85806 | 51.42068 | 35170 ft | 536 kts | 50° |
| 2026-05-07 23:41 | 62.90008 | 51.55532 | 35173 ft | 535 kts | 50° |
| 2026-05-07 23:41 | 62.94203 | 51.69050 | 35171 ft | 535 kts | 51° |
| 2026-05-07 23:42 | 62.98384 | 51.82601 | 35176 ft | 535 kts | 51° |
| 2026-05-07 23:42 | 63.02553 | 51.96198 | 35182 ft | 535 kts | 51° |
| 2026-05-07 23:43 | 63.06709 | 52.09835 | 35182 ft | 536 kts | 51° |
| 2026-05-07 23:43 | 63.10848 | 52.23496 | 35186 ft | 536 kts | 51° |
| 2026-05-07 23:44 | 63.14949 | 52.37113 | 35185 ft | 536 kts | 51° |
| 2026-05-07 23:44 | 63.19070 | 52.50884 | 35177 ft | 536 kts | 52° |
| 2026-05-07 23:45 | 63.23157 | 52.64739 | 35184 ft | 536 kts | 52° |
| 2026-05-07 23:45 | 63.27224 | 52.78635 | 35188 ft | 536 kts | 52° |
| 2026-05-07 23:46 | 63.31280 | 52.92564 | 35187 ft | 536 kts | 52° |
| 2026-05-07 23:46 | 63.35324 | 53.06527 | 35192 ft | 537 kts | 52° |
| 2026-05-07 23:47 | 63.39353 | 53.20522 | 35191 ft | 537 kts | 52° |
| 2026-05-07 23:47 | 63.43374 | 53.34578 | 35189 ft | 537 kts | 52° |
| 2026-05-07 23:48 | 63.47379 | 53.48668 | 35198 ft | 537 kts | 53° |
| 2026-05-07 23:48 | 63.51375 | 53.62805 | 35191 ft | 537 kts | 53° |
| 2026-05-07 23:49 | 63.55518 | 53.76556 | 35188 ft | 532 kts | 46° |
| 2026-05-07 23:49 | 63.60500 | 53.88611 | 35194 ft | 522 kts | 35° |
| 2026-05-07 23:50 | 63.65963 | 53.99352 | 35201 ft | 521 kts | 34° |
| 2026-05-07 23:50 | 63.71451 | 54.10084 | 35187 ft | 522 kts | 34° |
| 2026-05-07 23:51 | 63.76901 | 54.20951 | 35195 ft | 523 kts | 35° |
| 2026-05-07 23:51 | 63.81416 | 54.30063 | 35198 ft | 523 kts | 35° |
| 2026-05-07 23:52 | 63.86841 | 54.41074 | 35197 ft | 523 kts | 36° |
| 2026-05-07 23:52 | 63.92255 | 54.52110 | 35196 ft | 523 kts | 36° |
| 2026-05-07 23:53 | 63.97662 | 54.63187 | 35195 ft | 523 kts | 36° |
| 2026-05-07 23:53 | 64.03065 | 54.74315 | 35199 ft | 523 kts | 36° |
| 2026-05-07 23:54 | 64.08455 | 54.85473 | 35197 ft | 523 kts | 36° |
| 2026-05-07 23:54 | 64.13834 | 54.96674 | 35194 ft | 523 kts | 36° |
| 2026-05-07 23:55 | 64.19201 | 55.07914 | 35191 ft | 522 kts | 36° |
| 2026-05-07 23:55 | 64.24558 | 55.19196 | 35194 ft | 522 kts | 36° |
| 2026-05-07 23:56 | 64.29902 | 55.30512 | 35193 ft | 522 kts | 36° |
| 2026-05-07 23:56 | 64.35241 | 55.41878 | 35183 ft | 522 kts | 37° |
| 2026-05-07 23:57 | 64.40564 | 55.53273 | 35187 ft | 522 kts | 37° |
| 2026-05-07 23:57 | 64.45854 | 55.64662 | 35191 ft | 523 kts | 37° |
| 2026-05-07 23:58 | 64.51172 | 55.76175 | 35189 ft | 523 kts | 37° |
| 2026-05-07 23:58 | 64.56482 | 55.87732 | 35190 ft | 523 kts | 37° |
| 2026-05-07 23:59 | 64.61789 | 55.99350 | 35189 ft | 523 kts | 37° |
| 2026-05-07 23:59 | 64.67085 | 56.11010 | 35175 ft | 524 kts | 37° |
| 2026-05-08 00:00 | 64.72377 | 56.22726 | 35172 ft | 524 kts | 38° |
| 2026-05-08 00:00 | 64.77653 | 56.34474 | 35173 ft | 524 kts | 38° |
| 2026-05-08 00:01 | 64.82926 | 56.46278 | 35175 ft | 523 kts | 38° |
| 2026-05-08 00:01 | 64.88181 | 56.58115 | 35173 ft | 524 kts | 38° |
| 2026-05-08 00:02 | 64.93425 | 56.70045 | 35166 ft | 524 kts | 38° |
| 2026-05-08 00:02 | 64.98658 | 56.82027 | 35163 ft | 524 kts | 38° |
| 2026-05-08 00:03 | 65.03885 | 56.94055 | 35156 ft | 524 kts | 38° |
| 2026-05-08 00:03 | 65.09101 | 57.06122 | 35156 ft | 524 kts | 39° |
| 2026-05-08 00:04 | 65.14286 | 57.18305 | 35157 ft | 525 kts | 40° |
| 2026-05-08 00:04 | 65.19340 | 57.30927 | 35155 ft | 527 kts | 41° |
| 2026-05-08 00:05 | 65.24332 | 57.43565 | 35144 ft | 527 kts | 41° |
| 2026-05-08 00:05 | 65.29367 | 57.56264 | 35147 ft | 527 kts | 41° |
| 2026-05-08 00:06 | 65.34402 | 57.68994 | 35149 ft | 527 kts | 41° |
| 2026-05-08 00:06 | 65.39422 | 57.81776 | 35143 ft | 527 kts | 41° |
| 2026-05-08 00:07 | 65.44434 | 57.94615 | 35134 ft | 526 kts | 41° |
| 2026-05-08 00:07 | 65.49433 | 58.07494 | 35133 ft | 526 kts | 42° |
| 2026-05-08 00:08 | 65.54414 | 58.20405 | 35132 ft | 526 kts | 42° |
| 2026-05-08 00:08 | 65.59382 | 58.33361 | 35127 ft | 525 kts | 42° |
| 2026-05-08 00:09 | 65.64338 | 58.46362 | 35125 ft | 525 kts | 42° |
| 2026-05-08 00:09 | 65.69275 | 58.59395 | 35118 ft | 525 kts | 42° |
| 2026-05-08 00:10 | 65.74212 | 58.72504 | 35105 ft | 524 kts | 43° |
| 2026-05-08 00:10 | 65.79115 | 58.85605 | 35106 ft | 523 kts | 43° |
| 2026-05-08 00:11 | 65.83977 | 58.98677 | 35104 ft | 523 kts | 43° |
| 2026-05-08 00:11 | 65.88857 | 59.11875 | 35099 ft | 523 kts | 43° |
| 2026-05-08 00:12 | 65.93724 | 59.25118 | 35090 ft | 523 kts | 43° |
| 2026-05-08 00:12 | 65.98572 | 59.38394 | 35087 ft | 523 kts | 43° |
| 2026-05-08 00:13 | 66.03418 | 59.51737 | 35081 ft | 523 kts | 44° |
| 2026-05-08 00:13 | 66.08239 | 59.65135 | 35077 ft | 523 kts | 44° |
| 2026-05-08 00:14 | 66.13039 | 59.78643 | 35071 ft | 523 kts | 44° |
| 2026-05-08 00:14 | 66.17824 | 59.92192 | 35064 ft | 523 kts | 44° |
| 2026-05-08 00:15 | 66.22604 | 60.05793 | 35059 ft | 523 kts | 45° |
| 2026-05-08 00:15 | 66.27372 | 60.19440 | 35049 ft | 523 kts | 45° |
| 2026-05-08 00:16 | 66.32122 | 60.33126 | 35046 ft | 523 kts | 45° |
| 2026-05-08 00:16 | 66.36859 | 60.46867 | 35040 ft | 523 kts | 45° |
| 2026-05-08 00:17 | 66.41584 | 60.60657 | 35037 ft | 522 kts | 45° |
| 2026-05-08 00:17 | 66.46262 | 60.74386 | 35030 ft | 522 kts | 45° |
| 2026-05-08 00:18 | 66.50956 | 60.88263 | 35027 ft | 522 kts | 46° |
| 2026-05-08 00:18 | 66.55635 | 61.02192 | 35024 ft | 522 kts | 46° |
| 2026-05-08 00:19 | 66.60304 | 61.16175 | 35020 ft | 522 kts | 46° |
| 2026-05-08 00:19 | 66.64960 | 61.30208 | 35020 ft | 522 kts | 46° |
| 2026-05-08 00:20 | 66.69604 | 61.44297 | 35022 ft | 522 kts | 46° |
| 2026-05-08 00:20 | 66.74234 | 61.58433 | 35017 ft | 522 kts | 46° |
| 2026-05-08 00:21 | 66.78852 | 61.72624 | 35006 ft | 522 kts | 46° |
| 2026-05-08 00:21 | 66.83449 | 61.86847 | 35010 ft | 521 kts | 47° |
| 2026-05-08 00:22 | 66.88038 | 62.01136 | 35014 ft | 521 kts | 47° |
| 2026-05-08 00:22 | 66.92577 | 62.15361 | 35009 ft | 521 kts | 47° |
| 2026-05-08 00:23 | 66.97162 | 62.29825 | 35001 ft | 520 kts | 47° |
| 2026-05-08 00:23 | 67.01673 | 62.44146 | 35005 ft | 520 kts | 47° |
| 2026-05-08 00:24 | 67.06196 | 62.58588 | 35010 ft | 520 kts | 47° |
| 2026-05-08 00:24 | 67.10719 | 62.73036 | 35004 ft | 519 kts | 47° |
| 2026-05-08 00:25 | 67.15233 | 62.87527 | 35004 ft | 519 kts | 47° |
| 2026-05-08 00:25 | 67.19733 | 63.02082 | 35007 ft | 519 kts | 48° |
| 2026-05-08 00:26 | 67.24219 | 63.16695 | 35001 ft | 519 kts | 48° |
| 2026-05-08 00:26 | 67.28684 | 63.31340 | 35002 ft | 518 kts | 48° |
| 2026-05-08 00:27 | 67.33134 | 63.46032 | 34999 ft | 518 kts | 49° |
| 2026-05-08 00:27 | 67.37566 | 63.60765 | 34996 ft | 518 kts | 49° |
| 2026-05-08 00:28 | 67.41986 | 63.75554 | 34991 ft | 517 kts | 49° |
| 2026-05-08 00:28 | 67.46359 | 63.90436 | 34983 ft | 519 kts | 52° |
| 2026-05-08 00:29 | 67.49930 | 64.06858 | 34982 ft | 523 kts | 63° |
| 2026-05-08 00:29 | 67.52445 | 64.24719 | 35000 ft | 524 kts | 69° |
| 2026-05-08 00:30 | 67.54721 | 64.42719 | 34985 ft | 524 kts | 69° |
| 2026-05-08 00:30 | 67.57054 | 64.60815 | 34981 ft | 525 kts | 69° |
| 2026-05-08 00:31 | 67.59404 | 64.78902 | 34975 ft | 525 kts | 69° |
| 2026-05-08 00:31 | 67.61733 | 64.97069 | 34974 ft | 525 kts | 69° |
| 2026-05-08 00:32 | 67.64046 | 65.15228 | 34968 ft | 525 kts | 69° |
| 2026-05-08 00:32 | 67.66345 | 65.33444 | 34962 ft | 525 kts | 70° |
| 2026-05-08 00:33 | 67.68625 | 65.51712 | 34962 ft | 526 kts | 70° |
| 2026-05-08 00:33 | 67.70888 | 65.70031 | 34960 ft | 526 kts | 70° |
| 2026-05-08 00:34 | 67.73132 | 65.88387 | 34948 ft | 526 kts | 70° |
| 2026-05-08 00:34 | 67.75350 | 66.06637 | 34943 ft | 525 kts | 70° |
| 2026-05-08 00:35 | 67.77561 | 66.25023 | 34924 ft | 525 kts | 70° |
| 2026-05-08 00:35 | 67.79746 | 66.43411 | 34920 ft | 524 kts | 70° |
| 2026-05-08 00:36 | 67.81913 | 66.61831 | 34913 ft | 524 kts | 71° |
| 2026-05-08 00:36 | 67.84058 | 66.80267 | 34905 ft | 523 kts | 71° |
| 2026-05-08 00:37 | 67.86182 | 66.98678 | 34899 ft | 522 kts | 71° |
| 2026-05-08 00:38 | 67.89326 | 67.26313 | 34890 ft | 521 kts | 72° |
| 2026-05-08 00:38 | 67.91394 | 67.44728 | 34887 ft | 520 kts | 72° |
| 2026-05-08 00:39 | 67.93430 | 67.63132 | 34891 ft | 519 kts | 72° |
| 2026-05-08 00:39 | 67.95100 | 67.78464 | 34887 ft | 518 kts | 72° |
| 2026-05-08 00:40 | 67.97087 | 67.96910 | 34887 ft | 518 kts | 72° |
| 2026-05-08 00:40 | 67.99057 | 68.15403 | 34885 ft | 519 kts | 73° |
| 2026-05-08 00:41 | 68.01007 | 68.33919 | 34880 ft | 519 kts | 73° |
| 2026-05-08 00:41 | 68.02941 | 68.52516 | 34882 ft | 520 kts | 73° |
| 2026-05-08 00:42 | 68.04843 | 68.71032 | 34875 ft | 521 kts | 73° |
| 2026-05-08 00:42 | 68.06742 | 68.89758 | 34876 ft | 522 kts | 73° |
| 2026-05-08 00:43 | 68.08620 | 69.08518 | 34866 ft | 523 kts | 73° |
| 2026-05-08 00:43 | 68.10482 | 69.27363 | 34861 ft | 523 kts | 74° |
| 2026-05-08 00:44 | 68.12324 | 69.46254 | 34854 ft | 524 kts | 74° |
| 2026-05-08 00:44 | 68.14142 | 69.65156 | 34851 ft | 524 kts | 74° |
| 2026-05-08 00:45 | 68.15940 | 69.84098 | 34846 ft | 524 kts | 74° |
| 2026-05-08 00:45 | 68.17717 | 70.03069 | 34832 ft | 524 kts | 75° |
| 2026-05-08 00:46 | 68.19473 | 70.22086 | 34831 ft | 523 kts | 75° |
| 2026-05-08 00:46 | 68.21203 | 70.41088 | 34824 ft | 523 kts | 75° |
| 2026-05-08 00:47 | 68.22902 | 70.60004 | 34813 ft | 523 kts | 75° |
| 2026-05-08 00:47 | 68.24600 | 70.79186 | 34811 ft | 522 kts | 75° |
| 2026-05-08 00:48 | 68.26264 | 70.98263 | 34799 ft | 522 kts | 75° |
| 2026-05-08 00:48 | 68.27909 | 71.17349 | 34794 ft | 522 kts | 76° |
| 2026-05-08 00:49 | 68.29516 | 71.36323 | 34789 ft | 522 kts | 76° |
| 2026-05-08 00:49 | 68.31117 | 71.55480 | 34779 ft | 522 kts | 76° |
| 2026-05-08 00:50 | 68.32695 | 71.74637 | 34774 ft | 522 kts | 76° |
| 2026-05-08 00:50 | 68.34252 | 71.93823 | 34769 ft | 522 kts | 76° |
| 2026-05-08 00:51 | 68.35786 | 72.13030 | 34762 ft | 522 kts | 76° |
| 2026-05-08 00:51 | 68.37299 | 72.32268 | 34758 ft | 522 kts | 77° |
| 2026-05-08 00:52 | 68.38790 | 72.51543 | 34750 ft | 522 kts | 77° |
| 2026-05-08 00:52 | 68.40257 | 72.70813 | 34747 ft | 522 kts | 77° |
| 2026-05-08 00:53 | 68.41704 | 72.90138 | 34741 ft | 522 kts | 77° |
| 2026-05-08 00:53 | 68.43129 | 73.09498 | 34739 ft | 522 kts | 77° |
| 2026-05-08 00:54 | 68.44531 | 73.28864 | 34728 ft | 522 kts | 78° |
| 2026-05-08 00:54 | 68.45909 | 73.48186 | 34726 ft | 522 kts | 78° |
| 2026-05-08 00:55 | 68.47527 | 73.67456 | 34727 ft | 520 kts | 71° |
| 2026-05-08 00:55 | 68.49714 | 73.86226 | 34725 ft | 520 kts | 70° |
| 2026-05-08 00:56 | 68.51921 | 74.04874 | 34703 ft | 520 kts | 71° |
| 2026-05-08 00:56 | 68.54089 | 74.23715 | 34715 ft | 520 kts | 71° |
| 2026-05-08 00:57 | 68.56213 | 74.42634 | 34716 ft | 520 kts | 71° |
| 2026-05-08 00:57 | 68.58309 | 74.61590 | 34704 ft | 521 kts | 72° |
| 2026-05-08 00:58 | 68.60385 | 74.80576 | 34695 ft | 521 kts | 72° |
| 2026-05-08 00:58 | 68.62442 | 74.99607 | 34694 ft | 521 kts | 72° |
| 2026-05-08 00:59 | 68.64481 | 75.18684 | 34689 ft | 521 kts | 72° |
| 2026-05-08 00:59 | 68.66495 | 75.37772 | 34689 ft | 521 kts | 72° |
| 2026-05-08 01:00 | 68.68489 | 75.56910 | 34683 ft | 521 kts | 73° |
| 2026-05-08 01:00 | 68.70460 | 75.76076 | 34676 ft | 521 kts | 73° |
| 2026-05-08 01:01 | 68.72410 | 75.95273 | 34676 ft | 521 kts | 73° |
| 2026-05-08 01:01 | 68.74326 | 76.14386 | 34671 ft | 521 kts | 73° |
| 2026-05-08 01:02 | 68.76232 | 76.33650 | 34666 ft | 521 kts | 73° |
| 2026-05-08 01:02 | 68.78116 | 76.52948 | 34659 ft | 520 kts | 74° |
| 2026-05-08 01:03 | 68.79975 | 76.72239 | 34659 ft | 520 kts | 74° |
| 2026-05-08 01:03 | 68.81815 | 76.91602 | 34655 ft | 520 kts | 74° |
| 2026-05-08 01:04 | 68.83630 | 77.10961 | 34649 ft | 520 kts | 75° |
| 2026-05-08 01:04 | 68.85425 | 77.30368 | 34652 ft | 520 kts | 75° |
| 2026-05-08 01:05 | 68.87198 | 77.49813 | 34647 ft | 520 kts | 75° |
| 2026-05-08 01:05 | 68.88948 | 77.69284 | 34638 ft | 520 kts | 75° |
| 2026-05-08 01:06 | 68.90679 | 77.88822 | 34633 ft | 520 kts | 75° |
| 2026-05-08 01:06 | 68.92385 | 78.08352 | 34628 ft | 520 kts | 76° |
| 2026-05-08 01:07 | 68.94066 | 78.27898 | 34629 ft | 520 kts | 76° |
| 2026-05-08 01:07 | 68.95716 | 78.47354 | 34617 ft | 520 kts | 76° |
| 2026-05-08 01:08 | 68.97355 | 78.66972 | 34610 ft | 520 kts | 76° |
| 2026-05-08 01:08 | 68.98970 | 78.86599 | 34605 ft | 520 kts | 76° |
| 2026-05-08 01:09 | 69.00564 | 79.06266 | 34597 ft | 520 kts | 77° |
| 2026-05-08 01:09 | 69.02090 | 79.25996 | 34595 ft | 520 kts | 77° |
| 2026-05-08 01:10 | 69.03582 | 79.45767 | 34585 ft | 520 kts | 77° |
| 2026-05-08 01:10 | 69.05061 | 79.65525 | 34582 ft | 520 kts | 77° |
| 2026-05-08 01:11 | 69.06523 | 79.85334 | 34574 ft | 520 kts | 77° |
| 2026-05-08 01:11 | 69.07972 | 80.05160 | 34571 ft | 520 kts | 78° |
| 2026-05-08 01:12 | 69.09403 | 80.25007 | 34562 ft | 520 kts | 78° |
| 2026-05-08 01:12 | 69.10811 | 80.44886 | 34556 ft | 520 kts | 78° |
| 2026-05-08 01:13 | 69.12196 | 80.64791 | 34553 ft | 520 kts | 78° |
| 2026-05-08 01:13 | 69.13557 | 80.84729 | 34547 ft | 520 kts | 78° |
| 2026-05-08 01:14 | 69.14894 | 81.04676 | 34542 ft | 520 kts | 79° |
| 2026-05-08 01:14 | 69.16207 | 81.24639 | 34535 ft | 520 kts | 79° |
| 2026-05-08 01:15 | 69.17489 | 81.44482 | 34527 ft | 520 kts | 79° |
| 2026-05-08 01:15 | 69.18755 | 81.64472 | 34521 ft | 519 kts | 79° |
| 2026-05-08 01:16 | 69.19997 | 81.84481 | 34517 ft | 519 kts | 79° |
| 2026-05-08 01:16 | 69.21216 | 82.04504 | 34505 ft | 519 kts | 80° |
| 2026-05-08 01:17 | 69.22410 | 82.24524 | 34505 ft | 519 kts | 80° |
| 2026-05-08 01:17 | 69.23581 | 82.44560 | 34498 ft | 519 kts | 80° |
| 2026-05-08 01:18 | 69.24731 | 82.64665 | 34492 ft | 518 kts | 80° |
| 2026-05-08 01:18 | 69.25855 | 82.84745 | 34481 ft | 518 kts | 81° |
| 2026-05-08 01:19 | 69.26955 | 83.04832 | 34477 ft | 518 kts | 81° |
| 2026-05-08 01:19 | 69.28035 | 83.24990 | 34468 ft | 519 kts | 81° |
| 2026-05-08 01:20 | 69.29089 | 83.45132 | 34464 ft | 519 kts | 81° |
| 2026-05-08 01:20 | 69.30120 | 83.65315 | 34455 ft | 519 kts | 81° |
| 2026-05-08 01:21 | 69.31129 | 83.85514 | 34448 ft | 519 kts | 82° |
| 2026-05-08 01:21 | 69.32114 | 84.05757 | 34436 ft | 519 kts | 82° |
| 2026-05-08 01:22 | 69.33069 | 84.25862 | 34430 ft | 519 kts | 82° |
| 2026-05-08 01:22 | 69.34007 | 84.46119 | 34424 ft | 519 kts | 82° |
| 2026-05-08 01:23 | 69.34919 | 84.66367 | 34413 ft | 518 kts | 82° |
| 2026-05-08 01:23 | 69.35809 | 84.86643 | 34409 ft | 518 kts | 83° |
| 2026-05-08 01:24 | 69.36674 | 85.06910 | 34394 ft | 518 kts | 83° |
| 2026-05-08 01:24 | 69.37515 | 85.27188 | 34382 ft | 518 kts | 83° |
| 2026-05-08 01:25 | 69.38334 | 85.47500 | 34361 ft | 518 kts | 83° |
| 2026-05-08 01:25 | 69.39127 | 85.67806 | 34345 ft | 518 kts | 83° |
| 2026-05-08 01:26 | 69.39900 | 85.88122 | 34333 ft | 518 kts | 84° |
| 2026-05-08 01:26 | 69.40597 | 86.08338 | 34314 ft | 518 kts | 88° |
| 2026-05-08 01:27 | 69.40194 | 86.28733 | 34301 ft | 517 kts | 99° |
| 2026-05-08 01:27 | 69.38543 | 86.48525 | 34279 ft | 516 kts | 107° |
| 2026-05-08 01:28 | 69.36883 | 86.64785 | 34258 ft | 516 kts | 107° |
| 2026-05-08 01:28 | 69.34917 | 86.84361 | 34252 ft | 517 kts | 107° |
| 2026-05-08 01:29 | 69.32973 | 87.03979 | 34245 ft | 518 kts | 107° |
| 2026-05-08 01:29 | 69.31231 | 87.23756 | 34244 ft | 519 kts | 99° |
| 2026-05-08 01:30 | 69.30782 | 87.44135 | 34248 ft | 520 kts | 88° |
| 2026-05-08 01:30 | 69.31510 | 87.64528 | 34246 ft | 521 kts | 83° |
| 2026-05-08 01:31 | 69.32382 | 87.84898 | 34236 ft | 522 kts | 83° |
| 2026-05-08 01:31 | 69.33164 | 88.05333 | 34225 ft | 523 kts | 84° |
| 2026-05-08 01:32 | 69.33891 | 88.25724 | 34214 ft | 523 kts | 84° |
| 2026-05-08 01:32 | 69.34605 | 88.46209 | 34205 ft | 522 kts | 84° |
| 2026-05-08 01:33 | 69.35307 | 88.66593 | 34190 ft | 515 kts | 85° |
| 2026-05-08 01:33 | 69.35977 | 88.86584 | 34201 ft | 509 kts | 85° |
| 2026-05-08 01:34 | 69.36625 | 89.06724 | 34213 ft | 516 kts | 85° |
| 2026-05-08 01:34 | 69.37252 | 89.26974 | 34202 ft | 514 kts | 85° |
| 2026-05-08 01:35 | 69.37854 | 89.47192 | 34212 ft | 516 kts | 85° |
| 2026-05-08 01:35 | 69.38433 | 89.67435 | 34203 ft | 513 kts | 86° |
| 2026-05-08 01:36 | 69.38990 | 89.87727 | 34218 ft | 517 kts | 86° |
| 2026-05-08 01:36 | 69.39523 | 90.07997 | 34193 ft | 512 kts | 86° |
| 2026-05-08 01:37 | 69.40030 | 90.28248 | 34197 ft | 516 kts | 86° |
| 2026-05-08 01:37 | 69.40515 | 90.48460 | 34182 ft | 513 kts | 86° |
| 2026-05-08 01:38 | 69.40982 | 90.68809 | 34168 ft | 516 kts | 87° |
| 2026-05-08 01:38 | 69.41457 | 90.88865 | 34158 ft | 511 kts | 86° |
| 2026-05-08 01:39 | 69.41939 | 91.09192 | 34141 ft | 519 kts | 87° |
| 2026-05-08 01:39 | 69.42394 | 91.29540 | 34119 ft | 512 kts | 87° |
| 2026-05-08 01:40 | 69.42819 | 91.49827 | 34110 ft | 516 kts | 88° |
| 2026-05-08 01:40 | 69.43219 | 91.70129 | 34084 ft | 511 kts | 88° |
| 2026-05-08 01:41 | 69.43594 | 91.90389 | 34075 ft | 517 kts | 88° |
| 2026-05-08 01:41 | 69.43947 | 92.10766 | 34049 ft | 512 kts | 88° |
| 2026-05-08 01:42 | 69.44274 | 92.30968 | 34042 ft | 515 kts | 89° |
| 2026-05-08 01:42 | 69.44582 | 92.51421 | 34022 ft | 517 kts | 89° |
| 2026-05-08 01:43 | 69.44865 | 92.71816 | 34003 ft | 516 kts | 89° |
| 2026-05-08 01:43 | 69.45123 | 92.92192 | 33982 ft | 512 kts | 89° |
| 2026-05-08 01:44 | 69.45357 | 93.12566 | 33969 ft | 518 kts | 90° |
| 2026-05-08 01:44 | 69.45567 | 93.32856 | 33954 ft | 516 kts | 90° |
| 2026-05-08 01:45 | 69.45752 | 93.53333 | 33947 ft | 519 kts | 90° |
| 2026-05-08 01:45 | 69.45919 | 93.73766 | 33943 ft | 515 kts | 91° |
| 2026-05-08 01:46 | 69.46058 | 93.94134 | 33927 ft | 516 kts | 91° |
| 2026-05-08 01:46 | 69.46174 | 94.14581 | 33913 ft | 514 kts | 91° |
| 2026-05-08 01:47 | 69.46264 | 94.35003 | 33916 ft | 519 kts | 91° |
| 2026-05-08 01:47 | 69.46333 | 94.55372 | 33904 ft | 509 kts | 92° |
| 2026-05-08 01:48 | 69.46392 | 94.85903 | 33891 ft | 515 kts | 92° |
| 2026-05-08 01:48 | 69.46398 | 95.06263 | 33881 ft | 516 kts | 93° |
| 2026-05-08 01:49 | 69.46331 | 95.26603 | 33848 ft | 516 kts | 94° |
| 2026-05-08 01:49 | 69.46227 | 95.46994 | 33844 ft | 514 kts | 94° |
| 2026-05-08 01:50 | 69.46107 | 95.67395 | 33818 ft | 516 kts | 94° |
| 2026-05-08 01:50 | 69.45970 | 95.87804 | 33806 ft | 514 kts | 94° |
| 2026-05-08 01:51 | 69.45809 | 96.08279 | 33791 ft | 519 kts | 94° |
| 2026-05-08 01:51 | 69.45625 | 96.28688 | 33781 ft | 514 kts | 94° |
| 2026-05-08 01:52 | 69.45411 | 96.49130 | 33788 ft | 517 kts | 94° |
| 2026-05-08 01:52 | 69.45178 | 96.69450 | 33782 ft | 514 kts | 95° |
| 2026-05-08 01:53 | 69.44919 | 96.89931 | 33773 ft | 519 kts | 95° |
| 2026-05-08 01:53 | 69.44640 | 97.10338 | 33776 ft | 514 kts | 95° |
| 2026-05-08 01:54 | 69.44332 | 97.30736 | 33768 ft | 517 kts | 95° |
| 2026-05-08 01:54 | 69.44003 | 97.51039 | 33772 ft | 517 kts | 95° |
| 2026-05-08 01:55 | 69.43652 | 97.71560 | 33760 ft | 516 kts | 95° |
| 2026-05-08 01:55 | 69.43278 | 97.91829 | 33769 ft | 517 kts | 95° |
| 2026-05-08 01:56 | 69.42872 | 98.12342 | 33762 ft | 519 kts | 96° |
| 2026-05-08 01:56 | 69.42448 | 98.32691 | 33769 ft | 517 kts | 96° |
| 2026-05-08 01:57 | 69.42000 | 98.53058 | 33759 ft | 513 kts | 96° |
| 2026-05-08 01:57 | 69.41528 | 98.73343 | 33778 ft | 517 kts | 96° |
| 2026-05-08 01:58 | 69.41039 | 98.93490 | 33758 ft | 511 kts | 97° |
| 2026-05-08 01:58 | 69.40522 | 99.13706 | 33778 ft | 515 kts | 96° |
| 2026-05-08 01:59 | 69.39985 | 99.33896 | 33787 ft | 512 kts | 97° |
| 2026-05-08 01:59 | 69.39421 | 99.54131 | 33786 ft | 512 kts | 97° |
| 2026-05-08 02:00 | 69.38830 | 99.74196 | 33804 ft | 512 kts | 97° |
| 2026-05-08 02:00 | 69.38211 | 99.94383 | 33805 ft | 514 kts | 97° |
| 2026-05-08 02:01 | 69.37576 | 100.14456 | 33818 ft | 511 kts | 98° |
| 2026-05-08 02:01 | 69.36915 | 100.34575 | 33820 ft | 512 kts | 98° |
| 2026-05-08 02:02 | 69.36235 | 100.54616 | 33843 ft | 511 kts | 98° |
| 2026-05-08 02:02 | 69.35532 | 100.74598 | 33844 ft | 511 kts | 98° |
| 2026-05-08 02:03 | 69.34805 | 100.94605 | 33829 ft | 508 kts | 99° |
| 2026-05-08 02:03 | 69.34057 | 101.14533 | 33851 ft | 510 kts | 99° |
| 2026-05-08 02:04 | 69.33292 | 101.34379 | 33856 ft | 510 kts | 99° |
| 2026-05-08 02:04 | 69.32498 | 101.54404 | 33864 ft | 509 kts | 100° |
| 2026-05-08 02:05 | 69.31702 | 101.74161 | 33872 ft | 509 kts | 100° |
| 2026-05-08 02:05 | 69.30890 | 101.94014 | 33872 ft | 508 kts | 100° |
| 2026-05-08 02:06 | 69.30057 | 102.13822 | 33883 ft | 507 kts | 101° |
| 2026-05-08 02:06 | 69.29199 | 102.33626 | 33890 ft | 508 kts | 101° |
| 2026-05-08 02:07 | 69.28313 | 102.53489 | 33901 ft | 511 kts | 101° |
| 2026-05-08 02:07 | 69.27399 | 102.73470 | 33898 ft | 515 kts | 101° |
| 2026-05-08 02:08 | 69.26463 | 102.93519 | 33898 ft | 515 kts | 102° |
| 2026-05-08 02:08 | 69.25504 | 103.13519 | 33905 ft | 514 kts | 102° |
| 2026-05-08 02:09 | 69.24501 | 103.33366 | 33920 ft | 513 kts | 102° |
| 2026-05-08 02:09 | 69.23461 | 103.53239 | 33906 ft | 512 kts | 103° |
| 2026-05-08 02:10 | 69.22405 | 103.73056 | 33921 ft | 511 kts | 103° |
| 2026-05-08 02:10 | 69.21333 | 103.92804 | 33917 ft | 510 kts | 103° |
| 2026-05-08 02:11 | 69.20238 | 104.12543 | 33922 ft | 510 kts | 103° |
| 2026-05-08 02:11 | 69.19121 | 104.32260 | 33920 ft | 510 kts | 103° |
| 2026-05-08 02:12 | 69.17982 | 104.51940 | 33927 ft | 510 kts | 104° |
| 2026-05-08 02:12 | 69.16819 | 104.71627 | 33930 ft | 511 kts | 104° |
| 2026-05-08 02:13 | 69.15634 | 104.91280 | 33934 ft | 511 kts | 104° |
| 2026-05-08 02:13 | 69.14427 | 105.10918 | 33939 ft | 511 kts | 104° |
| 2026-05-08 02:14 | 69.13194 | 105.30585 | 33946 ft | 511 kts | 104° |
| 2026-05-08 02:14 | 69.11942 | 105.50179 | 33958 ft | 511 kts | 105° |
| 2026-05-08 02:15 | 69.10667 | 105.69766 | 33965 ft | 511 kts | 105° |
| 2026-05-08 02:15 | 69.09594 | 105.85975 | 33966 ft | 510 kts | 105° |
| 2026-05-08 02:16 | 69.08277 | 106.05541 | 33978 ft | 510 kts | 105° |
| 2026-05-08 02:16 | 69.06722 | 106.28196 | 33979 ft | 510 kts | 105° |
| 2026-05-08 02:17 | 69.05364 | 106.47659 | 33981 ft | 510 kts | 106° |
| 2026-05-08 02:17 | 69.04209 | 106.63932 | 33996 ft | 510 kts | 106° |
| 2026-05-08 02:18 | 69.02814 | 106.83356 | 34003 ft | 510 kts | 106° |
| 2026-05-08 02:18 | 69.01400 | 107.02753 | 34001 ft | 511 kts | 106° |
| 2026-05-08 02:19 | 68.99971 | 107.22058 | 34010 ft | 511 kts | 106° |
| 2026-05-08 02:19 | 68.98513 | 107.41442 | 34018 ft | 512 kts | 107° |
| 2026-05-08 02:20 | 68.97028 | 107.60836 | 34026 ft | 512 kts | 107° |
| 2026-05-08 02:20 | 68.95521 | 107.80225 | 34030 ft | 512 kts | 107° |
| 2026-05-08 02:21 | 68.93991 | 107.99581 | 34042 ft | 513 kts | 107° |
| 2026-05-08 02:21 | 68.92438 | 108.18935 | 34050 ft | 513 kts | 107° |
| 2026-05-08 02:22 | 68.90862 | 108.38281 | 34056 ft | 513 kts | 107° |
| 2026-05-08 02:22 | 68.89266 | 108.57580 | 34061 ft | 513 kts | 107° |
| 2026-05-08 02:23 | 68.87646 | 108.76870 | 34069 ft | 513 kts | 107° |
| 2026-05-08 02:23 | 68.86003 | 108.96143 | 34078 ft | 514 kts | 107° |
| 2026-05-08 02:24 | 68.84348 | 109.15273 | 34084 ft | 514 kts | 107° |
| 2026-05-08 02:24 | 68.82661 | 109.34503 | 34091 ft | 515 kts | 108° |
| 2026-05-08 02:25 | 68.80949 | 109.53732 | 34099 ft | 515 kts | 108° |
| 2026-05-08 02:25 | 68.79214 | 109.72946 | 34115 ft | 515 kts | 108° |
| 2026-05-08 02:26 | 68.77457 | 109.92139 | 34109 ft | 516 kts | 108° |
| 2026-05-08 02:26 | 68.75676 | 110.11323 | 34126 ft | 517 kts | 108° |
| 2026-05-08 02:27 | 68.73870 | 110.30502 | 34134 ft | 517 kts | 108° |
| 2026-05-08 02:27 | 68.72041 | 110.49679 | 34144 ft | 518 kts | 108° |
| 2026-05-08 02:28 | 68.70188 | 110.68838 | 34140 ft | 518 kts | 108° |
| 2026-05-08 02:28 | 68.68312 | 110.87985 | 34150 ft | 519 kts | 108° |
| 2026-05-08 02:29 | 68.66425 | 111.06996 | 34150 ft | 519 kts | 108° |
| 2026-05-08 02:29 | 68.64504 | 111.26096 | 34162 ft | 519 kts | 108° |
| 2026-05-08 02:30 | 68.62564 | 111.45139 | 34172 ft | 520 kts | 108° |
| 2026-05-08 02:30 | 68.60595 | 111.64222 | 34180 ft | 520 kts | 108° |
| 2026-05-08 02:31 | 68.58605 | 111.83267 | 34188 ft | 520 kts | 108° |
| 2026-05-08 02:31 | 68.56595 | 112.02265 | 34196 ft | 520 kts | 108° |
| 2026-05-08 02:32 | 68.54557 | 112.21295 | 34205 ft | 521 kts | 108° |
| 2026-05-08 02:32 | 68.52507 | 112.40238 | 34207 ft | 521 kts | 108° |
| 2026-05-08 02:33 | 68.50391 | 112.59038 | 34219 ft | 521 kts | 110° |
| 2026-05-08 02:33 | 68.48117 | 112.77893 | 34230 ft | 521 kts | 110° |
| 2026-05-08 02:34 | 68.45849 | 112.96507 | 34231 ft | 521 kts | 110° |
| 2026-05-08 02:34 | 68.43568 | 113.15202 | 34242 ft | 521 kts | 110° |
| 2026-05-08 02:35 | 68.41273 | 113.33860 | 34255 ft | 521 kts | 110° |
| 2026-05-08 02:35 | 68.38955 | 113.52507 | 34261 ft | 521 kts | 110° |
| 2026-05-08 02:36 | 68.36622 | 113.71113 | 34267 ft | 521 kts | 110° |
| 2026-05-08 02:36 | 68.34302 | 113.89718 | 34294 ft | 522 kts | 110° |
| 2026-05-08 02:37 | 68.31965 | 114.08322 | 34287 ft | 522 kts | 110° |
| 2026-05-08 02:37 | 68.29605 | 114.26875 | 34305 ft | 522 kts | 110° |
| 2026-05-08 02:38 | 68.27219 | 114.45421 | 34316 ft | 523 kts | 110° |
| 2026-05-08 02:38 | 68.24814 | 114.63930 | 34311 ft | 523 kts | 110° |
| 2026-05-08 02:39 | 68.22371 | 114.82356 | 34327 ft | 522 kts | 110° |
| 2026-05-08 02:39 | 68.19919 | 115.00594 | 34337 ft | 522 kts | 110° |
| 2026-05-08 02:40 | 68.17435 | 115.18912 | 34345 ft | 522 kts | 110° |
| 2026-05-08 02:40 | 68.14932 | 115.37217 | 34348 ft | 521 kts | 110° |
| 2026-05-08 02:41 | 68.12415 | 115.55435 | 34360 ft | 521 kts | 111° |
| 2026-05-08 02:41 | 68.09877 | 115.73623 | 34364 ft | 521 kts | 111° |
| 2026-05-08 02:42 | 68.07320 | 115.91753 | 34372 ft | 520 kts | 111° |
| 2026-05-08 02:42 | 68.04746 | 116.09835 | 34382 ft | 520 kts | 111° |
| 2026-05-08 02:43 | 68.02151 | 116.27876 | 34390 ft | 520 kts | 111° |
| 2026-05-08 02:43 | 67.99536 | 116.45885 | 34395 ft | 520 kts | 111° |
| 2026-05-08 02:44 | 67.96904 | 116.63842 | 34395 ft | 520 kts | 111° |
| 2026-05-08 02:44 | 67.94251 | 116.81759 | 34409 ft | 520 kts | 111° |
| 2026-05-08 02:45 | 67.91584 | 116.99617 | 34412 ft | 520 kts | 111° |
| 2026-05-08 02:45 | 67.88899 | 117.17429 | 34418 ft | 519 kts | 111° |
| 2026-05-08 02:46 | 67.86173 | 117.35062 | 34425 ft | 519 kts | 112° |
| 2026-05-08 02:46 | 67.83398 | 117.52723 | 34427 ft | 519 kts | 112° |
| 2026-05-08 02:47 | 67.80608 | 117.70360 | 34437 ft | 519 kts | 112° |
| 2026-05-08 02:47 | 67.77805 | 117.87954 | 34442 ft | 520 kts | 112° |
| 2026-05-08 02:48 | 67.74983 | 118.05519 | 34450 ft | 520 kts | 112° |
| 2026-05-08 02:48 | 67.72136 | 118.23074 | 34457 ft | 520 kts | 112° |
| 2026-05-08 02:49 | 67.69288 | 118.40478 | 34464 ft | 521 kts | 112° |
| 2026-05-08 02:49 | 67.66405 | 118.57950 | 34469 ft | 521 kts | 112° |
| 2026-05-08 02:50 | 67.63499 | 118.75418 | 34477 ft | 522 kts | 113° |
| 2026-05-08 02:50 | 67.60614 | 118.92914 | 34481 ft | 523 kts | 112° |
| 2026-05-08 02:51 | 67.57759 | 119.10435 | 34483 ft | 523 kts | 112° |
| 2026-05-08 02:51 | 67.54881 | 119.27949 | 34491 ft | 524 kts | 112° |
| 2026-05-08 02:52 | 67.51969 | 119.45449 | 34494 ft | 525 kts | 112° |
| 2026-05-08 02:52 | 67.49032 | 119.62914 | 34497 ft | 525 kts | 112° |
| 2026-05-08 02:53 | 67.46071 | 119.80361 | 34509 ft | 526 kts | 112° |
| 2026-05-08 02:53 | 67.43094 | 119.97761 | 34492 ft | 527 kts | 112° |
| 2026-05-08 02:54 | 67.40090 | 120.15161 | 34523 ft | 527 kts | 113° |
| 2026-05-08 02:54 | 67.37067 | 120.32521 | 34514 ft | 527 kts | 113° |
| 2026-05-08 02:55 | 67.32499 | 120.58468 | 34524 ft | 527 kts | 113° |
| 2026-05-08 02:56 | 67.29430 | 120.75712 | 34538 ft | 527 kts | 113° |
| 2026-05-08 02:56 | 67.26342 | 120.92919 | 34552 ft | 527 kts | 113° |
| 2026-05-08 02:57 | 67.23237 | 121.10074 | 34559 ft | 527 kts | 113° |
| 2026-05-08 02:57 | 67.20113 | 121.27189 | 34562 ft | 527 kts | 113° |
| 2026-05-08 02:58 | 67.16997 | 121.44114 | 34568 ft | 527 kts | 113° |
| 2026-05-08 02:58 | 67.13840 | 121.61124 | 34575 ft | 526 kts | 113° |
| 2026-05-08 02:59 | 67.10671 | 121.78057 | 34581 ft | 526 kts | 113° |
| 2026-05-08 02:59 | 67.07488 | 121.94927 | 34584 ft | 525 kts | 114° |
| 2026-05-08 03:00 | 67.04288 | 122.11752 | 34589 ft | 525 kts | 114° |
| 2026-05-08 03:00 | 67.01079 | 122.28506 | 34591 ft | 524 kts | 114° |
| 2026-05-08 03:01 | 66.97790 | 122.45135 | 34595 ft | 524 kts | 115° |
| 2026-05-08 03:01 | 66.94355 | 122.61538 | 34601 ft | 524 kts | 116° |
| 2026-05-08 03:02 | 66.90905 | 122.77911 | 34606 ft | 523 kts | 116° |
| 2026-05-08 03:02 | 66.87472 | 122.94224 | 34612 ft | 523 kts | 116° |
| 2026-05-08 03:03 | 66.84023 | 123.10527 | 34608 ft | 523 kts | 116° |
| 2026-05-08 03:03 | 66.80577 | 123.26780 | 34615 ft | 522 kts | 114° |
| 2026-05-08 03:04 | 66.77942 | 123.43823 | 34631 ft | 517 kts | 103° |
| 2026-05-08 03:04 | 66.76608 | 123.58527 | 34639 ft | 514 kts | 97° |
| 2026-05-08 03:05 | 66.75063 | 123.79201 | 34632 ft | 515 kts | 97° |
| 2026-05-08 03:05 | 66.73692 | 123.97003 | 34630 ft | 515 kts | 97° |
| 2026-05-08 03:06 | 66.72507 | 124.11878 | 34635 ft | 516 kts | 98° |
| 2026-05-08 03:06 | 66.71059 | 124.29656 | 34630 ft | 516 kts | 98° |
| 2026-05-08 03:07 | 66.69591 | 124.47406 | 34635 ft | 516 kts | 98° |
| 2026-05-08 03:07 | 66.68105 | 124.65136 | 34637 ft | 516 kts | 98° |
| 2026-05-08 03:08 | 66.66601 | 124.82831 | 34645 ft | 515 kts | 98° |
| 2026-05-08 03:08 | 66.65078 | 125.00493 | 34654 ft | 515 kts | 99° |
| 2026-05-08 03:09 | 66.63547 | 125.18010 | 34651 ft | 515 kts | 99° |
| 2026-05-08 03:09 | 66.61988 | 125.35593 | 34649 ft | 515 kts | 99° |
| 2026-05-08 03:10 | 66.60408 | 125.53165 | 34658 ft | 514 kts | 99° |
| 2026-05-08 03:10 | 66.58810 | 125.70696 | 34662 ft | 514 kts | 99° |
| 2026-05-08 03:11 | 66.57194 | 125.88190 | 34668 ft | 514 kts | 100° |
| 2026-05-08 03:11 | 66.55557 | 126.05685 | 34665 ft | 514 kts | 100° |
| 2026-05-08 03:12 | 66.53905 | 126.23113 | 34668 ft | 513 kts | 100° |
| 2026-05-08 03:12 | 66.52234 | 126.40493 | 34675 ft | 512 kts | 101° |
| 2026-05-08 03:13 | 66.50548 | 126.57833 | 34677 ft | 512 kts | 101° |
| 2026-05-08 03:13 | 66.48840 | 126.75165 | 34676 ft | 512 kts | 101° |
| 2026-05-08 03:14 | 66.47113 | 126.92477 | 34677 ft | 512 kts | 101° |
| 2026-05-08 03:14 | 66.45366 | 127.09769 | 34681 ft | 512 kts | 101° |
| 2026-05-08 03:15 | 66.43613 | 127.26908 | 34703 ft | 513 kts | 102° |
| 2026-05-08 03:15 | 66.42721 | 127.35549 | 34840 ft | 515 kts | 102° |
| 2026-05-08 03:15 | 66.41823 | 127.44199 | 35187 ft | 513 kts | 102° |
| 2026-05-08 03:15 | 66.40923 | 127.52806 | 35589 ft | 510 kts | 102° |
| 2026-05-08 03:16 | 66.40025 | 127.61344 | 35972 ft | 508 kts | 102° |
| 2026-05-08 03:16 | 66.39125 | 127.69858 | 36321 ft | 506 kts | 103° |
| 2026-05-08 03:16 | 66.38224 | 127.78328 | 36603 ft | 506 kts | 103° |
| 2026-05-08 03:17 | 66.36400 | 127.95352 | 36694 ft | 508 kts | 103° |
| 2026-05-08 03:17 | 66.34559 | 128.12318 | 36711 ft | 505 kts | 103° |
| 2026-05-08 03:18 | 66.32709 | 128.29178 | 36696 ft | 504 kts | 103° |
| 2026-05-08 03:18 | 66.30847 | 128.45953 | 36700 ft | 503 kts | 104° |
| 2026-05-08 03:19 | 66.28980 | 128.62601 | 36698 ft | 503 kts | 104° |
| 2026-05-08 03:19 | 66.27084 | 128.79320 | 36706 ft | 503 kts | 104° |
| 2026-05-08 03:20 | 66.25172 | 128.96024 | 36695 ft | 503 kts | 104° |
| 2026-05-08 03:20 | 66.22891 | 129.12467 | 36697 ft | 504 kts | 109° |
| 2026-05-08 03:21 | 66.20363 | 129.28682 | 36699 ft | 505 kts | 109° |
| 2026-05-08 03:21 | 66.17860 | 129.44935 | 36701 ft | 505 kts | 109° |
| 2026-05-08 03:22 | 66.15358 | 129.61155 | 36694 ft | 505 kts | 109° |
| 2026-05-08 03:22 | 66.12843 | 129.77339 | 36695 ft | 505 kts | 110° |
| 2026-05-08 03:23 | 66.10313 | 129.93490 | 36691 ft | 505 kts | 110° |
| 2026-05-08 03:23 | 66.07782 | 130.09505 | 36689 ft | 505 kts | 110° |
| 2026-05-08 03:24 | 66.05218 | 130.25591 | 36693 ft | 504 kts | 110° |
| 2026-05-08 03:24 | 66.02642 | 130.41619 | 36690 ft | 503 kts | 110° |
| 2026-05-08 03:25 | 66.00052 | 130.57594 | 36695 ft | 503 kts | 110° |
| 2026-05-08 03:25 | 65.97446 | 130.73539 | 36690 ft | 503 kts | 111° |
| 2026-05-08 03:26 | 65.94828 | 130.89422 | 36690 ft | 502 kts | 111° |
| 2026-05-08 03:26 | 65.92193 | 131.05275 | 36689 ft | 502 kts | 111° |
| 2026-05-08 03:27 | 65.89541 | 131.21100 | 36694 ft | 502 kts | 111° |
| 2026-05-08 03:27 | 65.86879 | 131.36860 | 36692 ft | 501 kts | 111° |
| 2026-05-08 03:28 | 65.84203 | 131.52567 | 36693 ft | 501 kts | 111° |
| 2026-05-08 03:28 | 65.81522 | 131.68186 | 36690 ft | 501 kts | 112° |
| 2026-05-08 03:29 | 65.78801 | 131.83918 | 36696 ft | 501 kts | 112° |
| 2026-05-08 03:29 | 65.76078 | 131.99543 | 36686 ft | 501 kts | 112° |
| 2026-05-08 03:30 | 65.71975 | 132.22810 | 36702 ft | 501 kts | 112° |
| 2026-05-08 03:31 | 65.66437 | 132.53821 | 36691 ft | 501 kts | 112° |
| 2026-05-08 03:32 | 65.62249 | 132.76973 | 36689 ft | 500 kts | 113° |
| 2026-05-08 03:32 | 65.59438 | 132.92364 | 36691 ft | 500 kts | 113° |
| 2026-05-08 03:33 | 65.56612 | 133.07711 | 36707 ft | 500 kts | 113° |
| 2026-05-08 03:33 | 65.53770 | 133.23036 | 36691 ft | 500 kts | 113° |
| 2026-05-08 03:34 | 65.50916 | 133.38306 | 36690 ft | 500 kts | 113° |
| 2026-05-08 03:34 | 65.48046 | 133.53548 | 36697 ft | 499 kts | 114° |
| 2026-05-08 03:35 | 65.45158 | 133.68765 | 36686 ft | 500 kts | 114° |
| 2026-05-08 03:35 | 65.42280 | 133.83823 | 36690 ft | 499 kts | 114° |
| 2026-05-08 03:36 | 65.39366 | 133.98954 | 36688 ft | 499 kts | 114° |
| 2026-05-08 03:36 | 65.36439 | 134.14044 | 36691 ft | 499 kts | 114° |
| 2026-05-08 03:37 | 65.33493 | 134.29123 | 36684 ft | 499 kts | 114° |
| 2026-05-08 03:37 | 65.30534 | 134.44154 | 36689 ft | 499 kts | 115° |
| 2026-05-08 03:38 | 65.27566 | 134.59142 | 36683 ft | 499 kts | 115° |
| 2026-05-08 03:38 | 65.24579 | 134.74086 | 36691 ft | 499 kts | 115° |
| 2026-05-08 03:39 | 65.21562 | 134.88987 | 36679 ft | 499 kts | 115° |
| 2026-05-08 03:39 | 65.18553 | 135.03748 | 36680 ft | 498 kts | 115° |
| 2026-05-08 03:40 | 65.15521 | 135.18545 | 36680 ft | 497 kts | 115° |
| 2026-05-08 03:40 | 65.12482 | 135.33283 | 36681 ft | 496 kts | 116° |
| 2026-05-08 03:41 | 65.09431 | 135.47967 | 36679 ft | 496 kts | 116° |
| 2026-05-08 03:41 | 65.06370 | 135.62625 | 36675 ft | 495 kts | 116° |
| 2026-05-08 03:42 | 65.03304 | 135.77221 | 36675 ft | 495 kts | 116° |
| 2026-05-08 03:42 | 65.00223 | 135.91799 | 36671 ft | 495 kts | 116° |
| 2026-05-08 03:43 | 64.97131 | 136.06319 | 36672 ft | 495 kts | 116° |
| 2026-05-08 03:43 | 64.94024 | 136.20813 | 36678 ft | 495 kts | 117° |
| 2026-05-08 03:44 | 64.90902 | 136.35277 | 36673 ft | 495 kts | 117° |
| 2026-05-08 03:44 | 64.87768 | 136.49697 | 36671 ft | 494 kts | 117° |
| 2026-05-08 03:45 | 64.84620 | 136.64084 | 36675 ft | 494 kts | 117° |
| 2026-05-08 03:45 | 64.81462 | 136.78423 | 36671 ft | 494 kts | 117° |
| 2026-05-08 03:46 | 64.78313 | 136.92629 | 36669 ft | 494 kts | 118° |
| 2026-05-08 03:46 | 64.75136 | 137.06880 | 36659 ft | 493 kts | 118° |
| 2026-05-08 03:47 | 64.72000 | 137.21164 | 36650 ft | 493 kts | 117° |
| 2026-05-08 03:47 | 64.68977 | 137.35558 | 36645 ft | 493 kts | 116° |
| 2026-05-08 03:48 | 64.65942 | 137.49943 | 36634 ft | 493 kts | 117° |
| 2026-05-08 03:48 | 64.62880 | 137.64249 | 36632 ft | 493 kts | 117° |
| 2026-05-08 03:49 | 64.59790 | 137.78545 | 36629 ft | 493 kts | 117° |
| 2026-05-08 03:49 | 64.56690 | 137.92797 | 36622 ft | 493 kts | 117° |
| 2026-05-08 03:50 | 64.53597 | 138.06933 | 36612 ft | 493 kts | 117° |
| 2026-05-08 03:50 | 64.50473 | 138.21122 | 36617 ft | 493 kts | 117° |
| 2026-05-08 03:51 | 64.47339 | 138.35262 | 36614 ft | 493 kts | 118° |
| 2026-05-08 03:51 | 64.44196 | 138.49377 | 36605 ft | 493 kts | 118° |
| 2026-05-08 03:52 | 64.41044 | 138.63454 | 36614 ft | 492 kts | 118° |
| 2026-05-08 03:52 | 64.37882 | 138.77480 | 36605 ft | 492 kts | 118° |
| 2026-05-08 03:53 | 64.35248 | 138.89100 | 36607 ft | 491 kts | 118° |
| 2026-05-08 03:53 | 64.32062 | 139.03060 | 36603 ft | 491 kts | 118° |
| 2026-05-08 03:54 | 64.28867 | 139.16974 | 36605 ft | 491 kts | 118° |
| 2026-05-08 03:54 | 64.25664 | 139.30835 | 36604 ft | 490 kts | 119° |
| 2026-05-08 03:55 | 64.22452 | 139.44647 | 36593 ft | 490 kts | 119° |
| 2026-05-08 03:55 | 64.19225 | 139.58433 | 36608 ft | 489 kts | 119° |
| 2026-05-08 03:56 | 64.16012 | 139.72073 | 36587 ft | 489 kts | 119° |
| 2026-05-08 03:56 | 64.12766 | 139.85769 | 36586 ft | 489 kts | 120° |
| 2026-05-08 03:57 | 64.09508 | 139.99427 | 36587 ft | 489 kts | 120° |
| 2026-05-08 03:57 | 64.06238 | 140.13051 | 36596 ft | 489 kts | 120° |
| 2026-05-08 03:58 | 64.02952 | 140.26658 | 36595 ft | 489 kts | 120° |
| 2026-05-08 03:58 | 63.99658 | 140.40214 | 36570 ft | 489 kts | 120° |
| 2026-05-08 03:59 | 63.96353 | 140.53738 | 36566 ft | 489 kts | 120° |
| 2026-05-08 03:59 | 63.93032 | 140.67250 | 36578 ft | 488 kts | 120° |
| 2026-05-08 04:00 | 63.89682 | 140.80684 | 36572 ft | 488 kts | 121° |
| 2026-05-08 04:00 | 63.86308 | 140.94060 | 36566 ft | 489 kts | 121° |
| 2026-05-08 04:01 | 63.82926 | 141.07432 | 36565 ft | 488 kts | 121° |
| 2026-05-08 04:01 | 63.79542 | 141.20765 | 36562 ft | 488 kts | 121° |
| 2026-05-08 04:02 | 63.76157 | 141.34085 | 36560 ft | 488 kts | 121° |
| 2026-05-08 04:02 | 63.72760 | 141.47381 | 36567 ft | 488 kts | 121° |
| 2026-05-08 04:03 | 63.69380 | 141.60533 | 36565 ft | 488 kts | 121° |
| 2026-05-08 04:03 | 63.64249 | 141.80341 | 36564 ft | 488 kts | 121° |
| 2026-05-08 04:04 | 63.60819 | 141.93484 | 36565 ft | 487 kts | 121° |
| 2026-05-08 04:04 | 63.57383 | 142.06574 | 36568 ft | 486 kts | 121° |
| 2026-05-08 04:05 | 63.53933 | 142.19637 | 36566 ft | 486 kts | 121° |
| 2026-05-08 04:05 | 63.50477 | 142.32648 | 36569 ft | 486 kts | 122° |
| 2026-05-08 04:06 | 63.47014 | 142.45613 | 36573 ft | 485 kts | 122° |
| 2026-05-08 04:06 | 63.43539 | 142.58545 | 36581 ft | 485 kts | 122° |
| 2026-05-08 04:07 | 63.40053 | 142.71444 | 36583 ft | 485 kts | 122° |
| 2026-05-08 04:07 | 63.36550 | 142.84333 | 36587 ft | 485 kts | 122° |
| 2026-05-08 04:08 | 63.33041 | 142.97173 | 36592 ft | 485 kts | 122° |
| 2026-05-08 04:08 | 63.29544 | 143.09907 | 36592 ft | 485 kts | 122° |
| 2026-05-08 04:09 | 63.25894 | 143.22519 | 36596 ft | 485 kts | 128° |
| 2026-05-08 04:09 | 63.21595 | 143.34025 | 36593 ft | 484 kts | 131° |
| 2026-05-08 04:10 | 63.17225 | 143.45394 | 36600 ft | 484 kts | 131° |
| 2026-05-08 04:10 | 63.12874 | 143.56767 | 36601 ft | 484 kts | 131° |
| 2026-05-08 04:11 | 63.08528 | 143.68145 | 36605 ft | 484 kts | 131° |
| 2026-05-08 04:11 | 63.04180 | 143.79490 | 36610 ft | 484 kts | 131° |
| 2026-05-08 04:12 | 62.99823 | 143.90796 | 36607 ft | 484 kts | 131° |
| 2026-05-08 04:12 | 62.95457 | 144.02066 | 36609 ft | 484 kts | 131° |
| 2026-05-08 04:13 | 62.91077 | 144.13311 | 36612 ft | 484 kts | 131° |
| 2026-05-08 04:13 | 62.86691 | 144.24519 | 36609 ft | 484 kts | 131° |
| 2026-05-08 04:14 | 62.82301 | 144.35678 | 36614 ft | 484 kts | 131° |
| 2026-05-08 04:14 | 62.77907 | 144.46795 | 36617 ft | 483 kts | 131° |
| 2026-05-08 04:15 | 62.73530 | 144.57813 | 36618 ft | 483 kts | 131° |
| 2026-05-08 04:15 | 62.69121 | 144.68854 | 36628 ft | 483 kts | 131° |
| 2026-05-08 04:16 | 62.64705 | 144.79864 | 36632 ft | 483 kts | 131° |
| 2026-05-08 04:16 | 62.60280 | 144.90840 | 36640 ft | 482 kts | 131° |
| 2026-05-08 04:17 | 62.55851 | 145.01774 | 36646 ft | 482 kts | 131° |
| 2026-05-08 04:17 | 62.51413 | 145.12682 | 36653 ft | 482 kts | 132° |
| 2026-05-08 04:18 | 62.46962 | 145.23535 | 36659 ft | 482 kts | 132° |
| 2026-05-08 04:18 | 62.42494 | 145.34331 | 36665 ft | 482 kts | 132° |
| 2026-05-08 04:19 | 62.38021 | 145.45099 | 36661 ft | 482 kts | 132° |
| 2026-05-08 04:19 | 62.33534 | 145.55859 | 36670 ft | 482 kts | 132° |
| 2026-05-08 04:20 | 62.29044 | 145.66574 | 36670 ft | 482 kts | 132° |
| 2026-05-08 04:20 | 62.24548 | 145.77255 | 36673 ft | 482 kts | 132° |
| 2026-05-08 04:21 | 62.20048 | 145.87897 | 36670 ft | 482 kts | 132° |
| 2026-05-08 04:21 | 62.15543 | 145.98499 | 36673 ft | 481 kts | 133° |
| 2026-05-08 04:22 | 62.11058 | 146.09015 | 36676 ft | 481 kts | 133° |
| 2026-05-08 04:22 | 62.06543 | 146.19565 | 36676 ft | 481 kts | 133° |
| 2026-05-08 04:23 | 62.02020 | 146.30092 | 36671 ft | 481 kts | 133° |
| 2026-05-08 04:23 | 61.97494 | 146.40578 | 36682 ft | 481 kts | 133° |
| 2026-05-08 04:24 | 61.92954 | 146.51043 | 36684 ft | 481 kts | 133° |
| 2026-05-08 04:24 | 61.88415 | 146.61457 | 36687 ft | 481 kts | 133° |
| 2026-05-08 04:25 | 61.83871 | 146.71833 | 36684 ft | 481 kts | 133° |
| 2026-05-08 04:25 | 61.79314 | 146.82192 | 36695 ft | 480 kts | 133° |
| 2026-05-08 04:26 | 61.74758 | 146.92500 | 36687 ft | 480 kts | 133° |
| 2026-05-08 04:26 | 61.70191 | 147.02785 | 36693 ft | 480 kts | 133° |
| 2026-05-08 04:27 | 61.65619 | 147.13034 | 36691 ft | 480 kts | 133° |
| 2026-05-08 04:27 | 61.61039 | 147.23253 | 36701 ft | 480 kts | 133° |
| 2026-05-08 04:28 | 61.56453 | 147.33438 | 36700 ft | 480 kts | 133° |
| 2026-05-08 04:28 | 61.51860 | 147.43592 | 36707 ft | 479 kts | 133° |
| 2026-05-08 04:29 | 61.47295 | 147.53638 | 36702 ft | 479 kts | 134° |
| 2026-05-08 04:29 | 61.42692 | 147.63723 | 36710 ft | 479 kts | 134° |
| 2026-05-08 04:30 | 61.38081 | 147.73781 | 36708 ft | 479 kts | 134° |
| 2026-05-08 04:30 | 61.33467 | 147.83805 | 36716 ft | 479 kts | 134° |
| 2026-05-08 04:31 | 61.28843 | 147.93777 | 36716 ft | 479 kts | 134° |
| 2026-05-08 04:31 | 61.24202 | 148.03699 | 36725 ft | 478 kts | 134° |
| 2026-05-08 04:32 | 61.19554 | 148.13597 | 36762 ft | 480 kts | 135° |
| 2026-05-08 04:32 | 61.14860 | 148.23556 | 36741 ft | 486 kts | 135° |
| 2026-05-08 04:33 | 61.10101 | 148.33613 | 36734 ft | 491 kts | 135° |
| 2026-05-08 04:33 | 61.05308 | 148.43694 | 36731 ft | 493 kts | 135° |
| 2026-05-08 04:34 | 61.00530 | 148.53698 | 36731 ft | 492 kts | 135° |
| 2026-05-08 04:34 | 60.95728 | 148.63706 | 36735 ft | 490 kts | 135° |
| 2026-05-08 04:35 | 60.90944 | 148.73631 | 36726 ft | 487 kts | 135° |
| 2026-05-08 04:35 | 60.86173 | 148.83489 | 36730 ft | 485 kts | 135° |
| 2026-05-08 04:36 | 60.81412 | 148.93284 | 36733 ft | 484 kts | 135° |
| 2026-05-08 04:36 | 60.76654 | 149.03027 | 36734 ft | 484 kts | 135° |
| 2026-05-08 04:37 | 60.71893 | 149.12761 | 36739 ft | 484 kts | 135° |
| 2026-05-08 04:37 | 60.67155 | 149.22426 | 36745 ft | 485 kts | 135° |
| 2026-05-08 04:38 | 60.62373 | 149.32140 | 36741 ft | 486 kts | 136° |
| 2026-05-08 04:38 | 60.57573 | 149.41844 | 36743 ft | 487 kts | 136° |
| 2026-05-08 04:39 | 60.52757 | 149.51537 | 36745 ft | 487 kts | 136° |
| 2026-05-08 04:39 | 60.47927 | 149.61215 | 36744 ft | 488 kts | 136° |
| 2026-05-08 04:40 | 60.43875 | 149.69303 | 36744 ft | 488 kts | 136° |
| 2026-05-08 04:40 | 60.39027 | 149.78944 | 36748 ft | 488 kts | 136° |
| 2026-05-08 04:41 | 60.34202 | 149.88496 | 36748 ft | 488 kts | 136° |
| 2026-05-08 04:41 | 60.29325 | 149.98020 | 36745 ft | 488 kts | 136° |
| 2026-05-08 04:42 | 60.24427 | 150.07525 | 36745 ft | 488 kts | 136° |
| 2026-05-08 04:42 | 60.19559 | 150.17052 | 36749 ft | 488 kts | 136° |
| 2026-05-08 04:43 | 60.14704 | 150.26574 | 36749 ft | 488 kts | 136° |
| 2026-05-08 04:43 | 60.09829 | 150.36055 | 36752 ft | 488 kts | 137° |
| 2026-05-08 04:44 | 60.04928 | 150.45460 | 36747 ft | 488 kts | 137° |
| 2026-05-08 04:44 | 60.00014 | 150.54848 | 36744 ft | 488 kts | 137° |
| 2026-05-08 04:45 | 59.95093 | 150.64230 | 36747 ft | 488 kts | 137° |
| 2026-05-08 04:45 | 59.90098 | 150.73389 | 36748 ft | 488 kts | 142° |
| 2026-05-08 04:46 | 59.84597 | 150.81294 | 36749 ft | 487 kts | 146° |
| 2026-05-08 04:46 | 59.79080 | 150.88991 | 36746 ft | 488 kts | 145° |
| 2026-05-08 04:47 | 59.73554 | 150.96780 | 36752 ft | 488 kts | 145° |
| 2026-05-08 04:47 | 59.68024 | 151.04593 | 36751 ft | 488 kts | 145° |
| 2026-05-08 04:48 | 59.62487 | 151.12376 | 36750 ft | 488 kts | 145° |
| 2026-05-08 04:48 | 59.56897 | 151.20016 | 36762 ft | 488 kts | 146° |
| 2026-05-08 04:49 | 59.51280 | 151.27548 | 36759 ft | 488 kts | 146° |
| 2026-05-08 04:49 | 59.45660 | 151.35082 | 36761 ft | 489 kts | 146° |
| 2026-05-08 04:50 | 59.40044 | 151.42607 | 36762 ft | 489 kts | 146° |
| 2026-05-08 04:50 | 59.34416 | 151.50121 | 36758 ft | 489 kts | 146° |
| 2026-05-08 04:51 | 59.28782 | 151.57617 | 36759 ft | 490 kts | 146° |
| 2026-05-08 04:51 | 59.23190 | 151.65079 | 36762 ft | 490 kts | 146° |
| 2026-05-08 04:52 | 59.17547 | 151.72588 | 36761 ft | 490 kts | 146° |
| 2026-05-08 04:52 | 59.11904 | 151.80066 | 36761 ft | 491 kts | 146° |
| 2026-05-08 04:53 | 59.06259 | 151.87519 | 36762 ft | 491 kts | 146° |
| 2026-05-08 04:53 | 59.00612 | 151.94998 | 36761 ft | 491 kts | 146° |
| 2026-05-08 04:54 | 58.94962 | 152.02460 | 36759 ft | 491 kts | 146° |
| 2026-05-08 04:54 | 58.89313 | 152.09887 | 36765 ft | 491 kts | 147° |
| 2026-05-08 04:55 | 58.83658 | 152.17289 | 36762 ft | 491 kts | 147° |
| 2026-05-08 04:55 | 58.77997 | 152.24673 | 36764 ft | 491 kts | 147° |
| 2026-05-08 04:56 | 58.72337 | 152.32021 | 36764 ft | 491 kts | 147° |
| 2026-05-08 04:56 | 58.66689 | 152.39291 | 36767 ft | 491 kts | 147° |
| 2026-05-08 04:57 | 58.61007 | 152.46581 | 36770 ft | 491 kts | 147° |
| 2026-05-08 04:57 | 58.55338 | 152.53889 | 36764 ft | 491 kts | 146° |
| 2026-05-08 04:58 | 58.49764 | 152.61454 | 36769 ft | 491 kts | 145° |
| 2026-05-08 04:58 | 58.44198 | 152.69059 | 36767 ft | 492 kts | 146° |
| 2026-05-08 04:59 | 58.38599 | 152.76616 | 36766 ft | 492 kts | 146° |
| 2026-05-08 04:59 | 58.33044 | 152.84060 | 36764 ft | 492 kts | 146° |
| 2026-05-08 05:00 | 58.27439 | 152.91546 | 36759 ft | 492 kts | 146° |
| 2026-05-08 05:00 | 58.21830 | 152.99039 | 36761 ft | 493 kts | 146° |
| 2026-05-08 05:01 | 58.16212 | 153.06485 | 36759 ft | 493 kts | 147° |
| 2026-05-08 05:01 | 58.10491 | 153.13640 | 36760 ft | 493 kts | 148° |
| 2026-05-08 05:02 | 58.04751 | 153.20728 | 36761 ft | 493 kts | 148° |
| 2026-05-08 05:02 | 57.99012 | 153.27848 | 36754 ft | 493 kts | 148° |
| 2026-05-08 05:03 | 57.93313 | 153.34919 | 36756 ft | 494 kts | 148° |
| 2026-05-08 05:03 | 57.87573 | 153.42013 | 36755 ft | 494 kts | 148° |
| 2026-05-08 05:04 | 57.81831 | 153.49082 | 36755 ft | 494 kts | 148° |
| 2026-05-08 05:04 | 57.76073 | 153.56146 | 36750 ft | 494 kts | 148° |
| 2026-05-08 05:05 | 57.70320 | 153.63196 | 36750 ft | 494 kts | 148° |
| 2026-05-08 05:05 | 57.64567 | 153.70226 | 36746 ft | 494 kts | 148° |
| 2026-05-08 05:06 | 57.58806 | 153.77238 | 36746 ft | 494 kts | 148° |
| 2026-05-08 05:06 | 57.53035 | 153.84234 | 36747 ft | 494 kts | 148° |
| 2026-05-08 05:07 | 57.47292 | 153.91169 | 36743 ft | 495 kts | 148° |
| 2026-05-08 05:07 | 57.41517 | 153.98118 | 36741 ft | 495 kts | 148° |
| 2026-05-08 05:08 | 57.35731 | 154.05052 | 36739 ft | 495 kts | 148° |
| 2026-05-08 05:08 | 57.29934 | 154.11974 | 36743 ft | 496 kts | 149° |
| 2026-05-08 05:09 | 57.24131 | 154.18880 | 36751 ft | 496 kts | 149° |
| 2026-05-08 05:09 | 57.18322 | 154.25756 | 36742 ft | 496 kts | 149° |
| 2026-05-08 05:10 | 57.09557 | 154.35903 | 36741 ft | 496 kts | 149° |
| 2026-05-08 05:11 | 57.03703 | 154.42635 | 36743 ft | 496 kts | 149° |
| 2026-05-08 05:11 | 56.97848 | 154.49360 | 36739 ft | 497 kts | 149° |
| 2026-05-08 05:12 | 56.91992 | 154.56066 | 36737 ft | 497 kts | 150° |
| 2026-05-08 05:12 | 56.86160 | 154.62720 | 36736 ft | 497 kts | 150° |
| 2026-05-08 05:13 | 56.80287 | 154.69396 | 36736 ft | 497 kts | 150° |
| 2026-05-08 05:13 | 56.74403 | 154.76058 | 36744 ft | 498 kts | 150° |
| 2026-05-08 05:14 | 56.68521 | 154.82694 | 36737 ft | 498 kts | 150° |
| 2026-05-08 05:14 | 56.62618 | 154.89328 | 36740 ft | 498 kts | 150° |
| 2026-05-08 05:15 | 56.56711 | 154.95943 | 36744 ft | 498 kts | 150° |
| 2026-05-08 05:15 | 56.50803 | 155.02534 | 36739 ft | 499 kts | 150° |
| 2026-05-08 05:16 | 56.44893 | 155.09103 | 36732 ft | 499 kts | 150° |
| 2026-05-08 05:16 | 56.38968 | 155.15664 | 36738 ft | 499 kts | 150° |
| 2026-05-08 05:17 | 56.33044 | 155.22201 | 36726 ft | 499 kts | 150° |
| 2026-05-08 05:17 | 56.27117 | 155.28717 | 36733 ft | 499 kts | 150° |
| 2026-05-08 05:18 | 56.21177 | 155.35227 | 36732 ft | 499 kts | 151° |
| 2026-05-08 05:18 | 56.15245 | 155.41725 | 36735 ft | 500 kts | 150° |
| 2026-05-08 05:19 | 56.09339 | 155.48286 | 36737 ft | 500 kts | 150° |
| 2026-05-08 05:19 | 56.03430 | 155.54851 | 36737 ft | 500 kts | 150° |
| 2026-05-08 05:20 | 55.97543 | 155.61355 | 36732 ft | 501 kts | 150° |
| 2026-05-08 05:20 | 55.91601 | 155.67887 | 36731 ft | 501 kts | 150° |
| 2026-05-08 05:21 | 55.85669 | 155.74382 | 36732 ft | 501 kts | 151° |
| 2026-05-08 05:21 | 55.79729 | 155.80864 | 36737 ft | 501 kts | 151° |
| 2026-05-08 05:22 | 55.73784 | 155.87327 | 36731 ft | 501 kts | 151° |
| 2026-05-08 05:22 | 55.67831 | 155.93777 | 36738 ft | 501 kts | 151° |
| 2026-05-08 05:23 | 55.61870 | 156.00213 | 36738 ft | 501 kts | 151° |
| 2026-05-08 05:23 | 55.55912 | 156.06624 | 36735 ft | 502 kts | 151° |
| 2026-05-08 05:24 | 55.49977 | 156.12987 | 36731 ft | 502 kts | 151° |
| 2026-05-08 05:24 | 55.44008 | 156.19378 | 36747 ft | 502 kts | 151° |
| 2026-05-08 05:25 | 55.38029 | 156.25762 | 36752 ft | 503 kts | 152° |
| 2026-05-08 05:25 | 55.33001 | 156.31072 | 36744 ft | 503 kts | 152° |
| 2026-05-08 05:26 | 55.27038 | 156.37335 | 36753 ft | 503 kts | 152° |
| 2026-05-08 05:26 | 55.21029 | 156.43636 | 36751 ft | 503 kts | 152° |
| 2026-05-08 05:27 | 55.15019 | 156.49923 | 36754 ft | 503 kts | 152° |
| 2026-05-08 05:27 | 55.08997 | 156.56191 | 36754 ft | 503 kts | 152° |
| 2026-05-08 05:28 | 55.02975 | 156.62439 | 36762 ft | 504 kts | 152° |
| 2026-05-08 05:28 | 54.96946 | 156.68676 | 36761 ft | 504 kts | 152° |
| 2026-05-08 05:29 | 54.90924 | 156.74916 | 36764 ft | 504 kts | 152° |
| 2026-05-08 05:29 | 54.84886 | 156.81153 | 36774 ft | 505 kts | 152° |
| 2026-05-08 05:30 | 54.78837 | 156.87331 | 36765 ft | 505 kts | 153° |
| 2026-05-08 05:30 | 54.72773 | 156.93498 | 36773 ft | 505 kts | 153° |
| 2026-05-08 05:31 | 54.66715 | 156.99650 | 36778 ft | 505 kts | 153° |
| 2026-05-08 05:31 | 54.60680 | 157.05758 | 36767 ft | 506 kts | 153° |
| 2026-05-08 05:32 | 54.54600 | 157.11904 | 36770 ft | 506 kts | 153° |
| 2026-05-08 05:32 | 54.48527 | 157.18028 | 36771 ft | 506 kts | 153° |
| 2026-05-08 05:33 | 54.42443 | 157.24141 | 36775 ft | 507 kts | 153° |
| 2026-05-08 05:33 | 54.36358 | 157.30232 | 36764 ft | 507 kts | 153° |
| 2026-05-08 05:34 | 54.34716 | 157.31873 | 36763 ft | 507 kts | 153° |
| 2026-05-08 05:34 | 54.33511 | 157.33075 | 36769 ft | 507 kts | 153° |
| 2026-05-08 05:35 | 54.27453 | 157.39112 | 36763 ft | 507 kts | 153° |
| 2026-05-08 05:35 | 54.21347 | 157.45173 | 36764 ft | 508 kts | 154° |
| 2026-05-08 05:36 | 54.15238 | 157.51219 | 36755 ft | 508 kts | 154° |
| 2026-05-08 05:36 | 54.09129 | 157.57248 | 36590 ft | 501 kts | 154° |
| 2026-05-08 05:36 | 54.06142 | 157.60198 | 36211 ft | 494 kts | 154° |
| 2026-05-08 05:37 | 54.03166 | 157.63135 | 35466 ft | 495 kts | 154° |
| 2026-05-08 05:37 | 54.00182 | 157.66071 | 34597 ft | 500 kts | 154° |
| 2026-05-08 05:37 | 53.97138 | 157.69063 | 33697 ft | 506 kts | 154° |
| 2026-05-08 05:37 | 53.94115 | 157.72034 | 33332 ft | 496 kts | 154° |
| 2026-05-08 05:38 | 53.91167 | 157.74934 | 33248 ft | 481 kts | 154° |
| 2026-05-08 05:38 | 53.88319 | 157.77729 | 33155 ft | 468 kts | 154° |
| 2026-05-08 05:38 | 53.85532 | 157.80453 | 33066 ft | 455 kts | 154° |
| 2026-05-08 05:38 | 53.82826 | 157.83093 | 32982 ft | 443 kts | 155° |
| 2026-05-08 05:39 | 53.80194 | 157.85656 | 32892 ft | 431 kts | 155° |
| 2026-05-08 05:39 | 53.77612 | 157.88062 | 32709 ft | 416 kts | 162° |
| 2026-05-08 05:39 | 53.74878 | 157.89337 | 32165 ft | 403 kts | 180° |
| 2026-05-08 05:39 | 53.72117 | 157.89230 | 31605 ft | 393 kts | 195° |
| 2026-05-08 05:40 | 53.69558 | 157.87997 | 31115 ft | 385 kts | 208° |
| 2026-05-08 05:40 | 53.67265 | 157.85779 | 30705 ft | 375 kts | 222° |
| 2026-05-08 05:40 | 53.65416 | 157.82781 | 30336 ft | 366 kts | 235° |
| 2026-05-08 05:40 | 53.64089 | 157.79185 | 29959 ft | 358 kts | 248° |
| 2026-05-08 05:41 | 53.63337 | 157.75223 | 29544 ft | 354 kts | 261° |
| 2026-05-08 05:41 | 53.63167 | 157.71118 | 29089 ft | 351 kts | 273° |
| 2026-05-08 05:41 | 53.63569 | 157.67078 | 28661 ft | 350 kts | 285° |
| 2026-05-08 05:41 | 53.64508 | 157.63310 | 28214 ft | 350 kts | 297° |
| 2026-05-08 05:42 | 53.65832 | 157.59868 | 27795 ft | 350 kts | 305° |
| 2026-05-08 05:42 | 53.67518 | 157.56919 | 27384 ft | 352 kts | 321° |
| 2026-05-08 05:42 | 53.69613 | 157.54809 | 26944 ft | 350 kts | 327° |
| 2026-05-08 05:42 | 53.71725 | 157.52828 | 26737 ft | 342 kts | 327° |
| 2026-05-08 05:43 | 53.73773 | 157.50889 | 26570 ft | 334 kts | 326° |
| 2026-05-08 05:43 | 53.75765 | 157.48976 | 26409 ft | 325 kts | 326° |
| 2026-05-08 05:43 | 53.77706 | 157.47090 | 26174 ft | 319 kts | 326° |
| 2026-05-08 05:43 | 53.79614 | 157.45222 | 25851 ft | 315 kts | 326° |
| 2026-05-08 05:44 | 53.81507 | 157.43363 | 25486 ft | 314 kts | 326° |
| 2026-05-08 05:44 | 53.83387 | 157.41515 | 25145 ft | 311 kts | 327° |
| 2026-05-08 05:44 | 53.85403 | 157.40178 | 24759 ft | 314 kts | 346° |
| 2026-05-08 05:44 | 53.87571 | 157.39827 | 24546 ft | 313 kts | 356° |
| 2026-05-08 05:45 | 53.89740 | 157.40062 | 24300 ft | 315 kts | 4° |
| 2026-05-08 05:45 | 53.91869 | 157.40820 | 24061 ft | 320 kts | 14° |
| 2026-05-08 05:45 | 53.93939 | 157.42283 | 23831 ft | 325 kts | 27° |
| 2026-05-08 05:45 | 53.95778 | 157.44549 | 23604 ft | 329 kts | 42° |
| 2026-05-08 05:46 | 53.97242 | 157.47537 | 23359 ft | 331 kts | 57° |
| 2026-05-08 05:46 | 53.98247 | 157.51061 | 23099 ft | 332 kts | 71° |
| 2026-05-08 05:46 | 53.98754 | 157.54878 | 22804 ft | 332 kts | 84° |
| 2026-05-08 05:46 | 53.98749 | 157.58784 | 22506 ft | 330 kts | 98° |
| 2026-05-08 05:47 | 53.98238 | 157.62560 | 22234 ft | 327 kts | 111° |
| 2026-05-08 05:47 | 53.97266 | 157.66038 | 21953 ft | 324 kts | 122° |
| 2026-05-08 05:47 | 53.96018 | 157.69201 | 21696 ft | 321 kts | 130° |
| 2026-05-08 05:47 | 53.94464 | 157.71871 | 21392 ft | 315 kts | 149° |
| 2026-05-08 05:48 | 53.92601 | 157.73731 | 21137 ft | 309 kts | 154° |
| 2026-05-08 05:48 | 53.90727 | 157.75508 | 20875 ft | 313 kts | 153° |
| 2026-05-08 05:48 | 53.88740 | 157.77417 | 20673 ft | 344 kts | 153° |
| 2026-05-08 05:48 | 53.86561 | 157.79518 | 20464 ft | 376 kts | 153° |
| 2026-05-08 05:49 | 53.84198 | 157.81799 | 20236 ft | 405 kts | 153° |
| 2026-05-08 05:49 | 53.81716 | 157.84194 | 19986 ft | 413 kts | 153° |
| 2026-05-08 05:49 | 53.79210 | 157.86608 | 19737 ft | 414 kts | 153° |
| 2026-05-08 05:49 | 53.76703 | 157.89020 | 19489 ft | 414 kts | 153° |
| 2026-05-08 05:50 | 53.74207 | 157.91422 | 19232 ft | 413 kts | 153° |
| 2026-05-08 05:50 | 53.71743 | 157.93792 | 18983 ft | 412 kts | 153° |
| 2026-05-08 05:50 | 53.69255 | 157.96179 | 18732 ft | 411 kts | 153° |
| 2026-05-08 05:50 | 53.66776 | 157.98554 | 18487 ft | 409 kts | 153° |
| 2026-05-08 05:51 | 53.64377 | 158.01127 | 18247 ft | 409 kts | 146° |
| 2026-05-08 05:51 | 53.62134 | 158.04088 | 17991 ft | 409 kts | 142° |
| 2026-05-08 05:51 | 53.59965 | 158.07184 | 17709 ft | 408 kts | 141° |
| 2026-05-08 05:51 | 53.57819 | 158.10288 | 17432 ft | 406 kts | 141° |
| 2026-05-08 05:52 | 53.55673 | 158.13360 | 17157 ft | 404 kts | 142° |
| 2026-05-08 05:52 | 53.53520 | 158.16394 | 16888 ft | 403 kts | 142° |
| 2026-05-08 05:52 | 53.51366 | 158.19388 | 16607 ft | 401 kts | 143° |
| 2026-05-08 05:52 | 53.49214 | 158.22352 | 16329 ft | 399 kts | 143° |
| 2026-05-08 05:53 | 53.47064 | 158.25294 | 16073 ft | 398 kts | 143° |
| 2026-05-08 05:53 | 53.44920 | 158.28218 | 15817 ft | 396 kts | 143° |
| 2026-05-08 05:53 | 53.42784 | 158.31127 | 15548 ft | 395 kts | 143° |
| 2026-05-08 05:53 | 53.40659 | 158.34018 | 15287 ft | 393 kts | 143° |
| 2026-05-08 05:54 | 53.38569 | 158.36857 | 15031 ft | 391 kts | 143° |
| 2026-05-08 05:54 | 53.36454 | 158.39726 | 14771 ft | 390 kts | 143° |
| 2026-05-08 05:54 | 53.34351 | 158.42576 | 14511 ft | 388 kts | 143° |
| 2026-05-08 05:54 | 53.32256 | 158.45411 | 14263 ft | 387 kts | 143° |
| 2026-05-08 05:55 | 53.30163 | 158.48240 | 14011 ft | 386 kts | 143° |
| 2026-05-08 05:55 | 53.28081 | 158.51051 | 13769 ft | 384 kts | 143° |
| 2026-05-08 05:55 | 53.26003 | 158.53854 | 13519 ft | 383 kts | 143° |
| 2026-05-08 05:55 | 53.23929 | 158.56646 | 13244 ft | 382 kts | 143° |
| 2026-05-08 05:56 | 53.21865 | 158.59423 | 12959 ft | 380 kts | 143° |
| 2026-05-08 05:56 | 53.19822 | 158.62172 | 12673 ft | 372 kts | 143° |
| 2026-05-08 05:56 | 53.17829 | 158.64846 | 12395 ft | 363 kts | 143° |
| 2026-05-08 05:56 | 53.15884 | 158.67453 | 12112 ft | 355 kts | 143° |
| 2026-05-08 05:57 | 53.13946 | 158.69901 | 11824 ft | 341 kts | 152° |
| 2026-05-08 05:57 | 53.11842 | 158.71504 | 11720 ft | 324 kts | 162° |
| 2026-05-08 05:57 | 53.09813 | 158.72788 | 11466 ft | 301 kts | 162° |
| 2026-05-08 05:57 | 53.07935 | 158.74001 | 10979 ft | 288 kts | 162° |
| 2026-05-08 05:58 | 53.06063 | 158.75239 | 10271 ft | 285 kts | 161° |
| 2026-05-08 05:58 | 53.04249 | 158.76461 | 9551 ft | 283 kts | 161° |
| 2026-05-08 05:58 | 53.02444 | 158.77687 | 8838 ft | 279 kts | 160° |
| 2026-05-08 05:58 | 53.00643 | 158.78912 | 8062 ft | 278 kts | 160° |
| 2026-05-08 05:59 | 52.98867 | 158.79886 | 7602 ft | 263 kts | 179° |
| 2026-05-08 05:59 | 52.97094 | 158.79387 | 7160 ft | 261 kts | 211° |
| 2026-05-08 05:59 | 52.95735 | 158.77451 | 6635 ft | 260 kts | 239° |
| 2026-05-08 05:59 | 52.94932 | 158.74834 | 6326 ft | 248 kts | 251° |
| 2026-05-08 06:00 | 52.94304 | 158.72213 | 5839 ft | 240 kts | 252° |
| 2026-05-08 06:00 | 52.93712 | 158.69691 | 5580 ft | 225 kts | 252° |
| 2026-05-08 06:00 | 52.93165 | 158.67371 | 5416 ft | 206 kts | 255° |
| 2026-05-08 06:00 | 52.93014 | 158.65176 | 5233 ft | 182 kts | 279° |
| 2026-05-08 06:01 | 52.93342 | 158.63270 | 5045 ft | 164 kts | 292° |
| 2026-05-08 06:01 | 52.93838 | 158.61636 | 4725 ft | 154 kts | 310° |
| 2026-05-08 06:01 | 52.94732 | 158.60740 | 4312 ft | 148 kts | 326° |
| 2026-05-08 06:01 | 52.95579 | 158.59937 | 4125 ft | 140 kts | 327° |
| 2026-05-08 06:02 | 52.96458 | 158.59248 | 3924 ft | 140 kts | 329° |
| 2026-05-08 06:02 | 52.97317 | 158.58623 | 3728 ft | 132 kts | 329° |
| 2026-05-08 06:02 | 52.98160 | 158.58024 | 3584 ft | 133 kts | 330° |
| 2026-05-08 06:02 | 52.99030 | 158.57415 | 3432 ft | 138 kts | 330° |
| 2026-05-08 06:03 | 52.99915 | 158.56804 | 3256 ft | 137 kts | 330° |
| 2026-05-08 06:03 | 53.00791 | 158.56203 | 3054 ft | 133 kts | 330° |
| 2026-05-08 06:03 | 53.01636 | 158.55620 | 2895 ft | 131 kts | 329° |
| 2026-05-08 06:03 | 53.02484 | 158.55035 | 2752 ft | 133 kts | 330° |
| 2026-05-08 06:04 | 53.03344 | 158.54444 | 2581 ft | 134 kts | 330° |
| 2026-05-08 06:04 | 53.04199 | 158.53856 | 2440 ft | 134 kts | 330° |
| 2026-05-08 06:04 | 53.05058 | 158.53265 | 2243 ft | 133 kts | 330° |
| 2026-05-08 06:04 | 53.05900 | 158.52685 | 2090 ft | 132 kts | 330° |
| 2026-05-08 06:05 | 53.06770 | 158.52084 | 1914 ft | 135 kts | 331° |
| 2026-05-08 06:05 | 53.07636 | 158.51488 | 1710 ft | 135 kts | 331° |
| 2026-05-08 06:05 | 53.08488 | 158.50900 | 1508 ft | 130 kts | 330° |
| 2026-05-08 06:05 | 53.09317 | 158.50328 | 1372 ft | 133 kts | 332° |
| 2026-05-08 06:06 | 53.10207 | 158.49713 | 1192 ft | 142 kts | 334° |
| 2026-05-08 06:06 | 53.11129 | 158.49066 | 938 ft | 142 kts | 334° |
| 2026-05-08 06:06 | 53.12003 | 158.48427 | 750 ft | 135 kts | 334° |
| 2026-05-08 06:06 | 53.12859 | 158.47846 | 610 ft | 132 kts | 335° |
| 2026-05-08 06:07 | 53.13718 | 158.47289 | 467 ft | 133 kts | 336° |
| 2026-05-08 06:07 | 53.14585 | 158.46679 | 336 ft | 136 kts | 335° |
| 2026-05-08 06:07 | 53.15471 | 158.46069 | 199 ft | 141 kts | 336° |
| 2026-05-08 06:07 | 53.16348 | 158.45452 | 128 ft | 127 kts | 341° |
| 2026-05-08 06:08 | 53.17039 | 158.44991 | 128 ft | 85 kts | 338° |
| 2026-05-08 06:08 | 53.17431 | 158.44721 | 129 ft | 35 kts | 337° |
| 2026-05-08 06:08 | 53.17564 | 158.44625 | 123 ft | 16 kts | 327° |
| 2026-05-08 06:08 | 53.17564 | 158.44456 | 125 ft | 17 kts | 246° |
| 2026-05-08 06:09 | 53.17517 | 158.44275 | 122 ft | 17 kts | 246° |
| 2026-05-08 06:09 | 53.17471 | 158.44089 | 123 ft | 17 kts | 248° |
| 2026-05-08 06:09 | 53.17425 | 158.43904 | 123 ft | 17 kts | 240° |
| 2026-05-08 06:09 | 53.17363 | 158.43732 | 123 ft | 17 kts | 235° |
| 2026-05-08 06:10 | 53.17294 | 158.43567 | 124 ft | 17 kts | 239° |
| 2026-05-08 06:10 | 53.17236 | 158.43391 | 123 ft | 17 kts | 241° |
| 2026-05-08 06:10 | 53.17175 | 158.43223 | 125 ft | 14 kts | 238° |
| 2026-05-08 06:10 | 53.17125 | 158.43083 | 123 ft | 14 kts | 239° |
| 2026-05-08 06:11 | 53.17079 | 158.42952 | 122 ft | 8 kts | 239° |
| 2026-05-08 06:11 | 53.17052 | 158.42876 | 122 ft | 3 kts | 239° |
| 2026-05-08 06:11 | 53.17041 | 158.42844 | 122 ft | 4 kts | 239° |
| 2026-05-08 06:11 | 53.17032 | 158.42819 | 122 ft | 4 kts | 239° |
| 2026-05-08 06:12 | 53.17010 | 158.42787 | 123 ft | 4 kts | 207° |
| 2026-05-08 06:12 | 53.16971 | 158.42788 | 124 ft | 5 kts | 169° |
| 2026-05-08 06:12 | 53.16939 | 158.42807 | 122 ft | 5 kts | 153° |
| 2026-05-08 06:12 | 53.16901 | 158.42830 | 125 ft | 6 kts | 174° |
| 2026-05-08 06:13 | 53.16878 | 158.42809 | 125 ft | 6 kts | 236° |
| 2026-05-08 06:13 | 53.16877 | 158.42751 | 126 ft | 3 kts | 271° |
| 2026-05-08 06:13 | 53.16877 | 158.42730 | 125 ft | 0 kts | 270° |